PWSweather.com
Personal Weather Stations
Station Observations
SONYA
Sergiev PosadRU

Sergiev PosadRU

Lat: 56.28148651, Lon: 38.05462646

Elevation: 741

Station Type: Fine offset WH1091

High Low Average
Temperature 25.3°F-3.7°C 18.1°F-7.7°C 21.5°F-5.8°C
Dew Point 21.8°F-5.7°C 14.2°F-9.9°C 18.2°F-7.7°C
Winds 5.4 mph 8.7 kmh Calm Calm 1.0 mph E1.6 kmh E
Wind Gusts 7.6 mph12.2 kmh -- 2.0 mph3.2 kmh
Humidity 83% 78% 81%
Pressure 29.49 in998.6 mb 28.90 in978.7 mb -
Precipitation 0.00 in0.0 mm - -
Hour Temp Dew Point Humidity Winds Wind Gusts Pressure Precip Precip Rate Daily Precip Total
12:00 AM 23.9°F-4.5°C 20.8°F-6.2°C 83% Calm Calm -- 29.49 in998.6 mb 0.00 in0.0 mm 0.00 in0.0 mm 0.00 in0.0 mm
12:04 AM 23.7°F-4.6°C 20.7°F-6.3°C 83% Calm Calm -- 29.49 in998.6 mb 0.00 in0.0 mm 0.00 in0.0 mm 0.00 in0.0 mm
12:05 AM 23.7°F-4.6°C 20.7°F-6.3°C 83% Calm Calm 0.7 mph1.1 kmh 29.49 in998.6 mb 0.00 in0.0 mm 0.00 in0.0 mm 0.00 in0.0 mm
12:10 AM 23.7°F-4.6°C 20.7°F-6.3°C 83% Calm Calm 0.7 mph1.1 kmh 29.49 in998.6 mb 0.00 in0.0 mm 0.00 in0.0 mm 0.00 in0.0 mm
12:15 AM 23.7°F-4.6°C 20.7°F-6.3°C 83% Calm Calm -- 29.49 in998.6 mb 0.00 in0.0 mm 0.00 in0.0 mm 0.00 in0.0 mm
12:19 AM 23.7°F-4.6°C 20.7°F-6.3°C 83% Calm Calm 2.2 mph3.5 kmh 29.49 in998.6 mb 0.00 in0.0 mm 0.00 in0.0 mm 0.00 in0.0 mm
12:20 AM 23.7°F-4.6°C 20.7°F-6.3°C 83% Calm Calm -- 29.49 in998.6 mb 0.00 in0.0 mm 0.00 in0.0 mm 0.00 in0.0 mm
12:24 AM 23.7°F-4.6°C 20.7°F-6.3°C 83% Calm Calm -- 29.49 in998.6 mb 0.00 in0.0 mm 0.00 in0.0 mm 0.00 in0.0 mm
12:25 AM 23.7°F-4.6°C 20.7°F-6.3°C 83% Calm Calm -- 29.48 in998.3 mb 0.00 in0.0 mm 0.00 in0.0 mm 0.00 in0.0 mm
12:30 AM 23.7°F-4.6°C 20.7°F-6.3°C 83% Calm Calm 0.7 mph1.1 kmh 29.49 in998.6 mb 0.00 in0.0 mm 0.00 in0.0 mm 0.00 in0.0 mm
12:35 AM 23.7°F-4.6°C 20.7°F-6.3°C 83% Calm Calm 0.7 mph1.1 kmh 29.49 in998.6 mb 0.00 in0.0 mm 0.00 in0.0 mm 0.00 in0.0 mm
12:39 AM 23.7°F-4.6°C 20.7°F-6.3°C 83% Calm Calm 1.6 mph2.6 kmh 29.48 in998.3 mb 0.00 in0.0 mm 0.00 in0.0 mm 0.00 in0.0 mm
12:40 AM 23.7°F-4.6°C 20.7°F-6.3°C 83% Calm Calm 0.7 mph1.1 kmh 29.49 in998.6 mb 0.00 in0.0 mm 0.00 in0.0 mm 0.00 in0.0 mm
12:44 AM 23.7°F-4.6°C 20.7°F-6.3°C 83% 1.6 mph S2.6 kmh S 3.1 mph5.0 kmh 29.49 in998.6 mb 0.00 in0.0 mm 0.00 in0.0 mm 0.00 in0.0 mm
12:45 AM 23.7°F-4.6°C 20.7°F-6.3°C 83% Calm Calm 0.7 mph1.1 kmh 29.48 in998.3 mb 0.00 in0.0 mm 0.00 in0.0 mm 0.00 in0.0 mm
12:50 AM 23.7°F-4.6°C 20.7°F-6.3°C 83% Calm Calm 0.7 mph1.1 kmh 29.48 in998.3 mb 0.00 in0.0 mm 0.00 in0.0 mm 0.00 in0.0 mm
12:55 AM 23.5°F-4.7°C 20.3°F-6.5°C 82% 1.6 mph SE2.6 kmh SE 2.2 mph3.5 kmh 29.48 in998.3 mb 0.00 in0.0 mm 0.00 in0.0 mm 0.00 in0.0 mm
12:59 AM 23.5°F-4.7°C 20.3°F-6.5°C 82% Calm Calm -- 29.48 in998.3 mb 0.00 in0.0 mm 0.00 in0.0 mm 0.00 in0.0 mm
01:00 AM 23.5°F-4.7°C 20.3°F-6.5°C 82% 1.6 mph SE2.6 kmh SE 2.2 mph3.5 kmh 29.48 in998.3 mb 0.00 in0.0 mm 0.00 in0.0 mm 0.00 in0.0 mm
01:04 AM 23.5°F-4.7°C 20.3°F-6.5°C 82% Calm Calm 1.6 mph2.6 kmh 29.48 in998.3 mb 0.00 in0.0 mm 0.00 in0.0 mm 0.00 in0.0 mm
01:05 AM 23.5°F-4.7°C 20.3°F-6.5°C 82% Calm Calm -- 29.48 in998.3 mb 0.00 in0.0 mm 0.00 in0.0 mm 0.00 in0.0 mm
01:10 AM 23.4°F-4.8°C 20.1°F-6.6°C 82% Calm Calm -- 29.48 in998.3 mb 0.00 in0.0 mm 0.00 in0.0 mm 0.00 in0.0 mm
01:15 AM 23.5°F-4.7°C 20.3°F-6.5°C 82% Calm Calm 0.7 mph1.1 kmh 29.48 in998.3 mb 0.00 in0.0 mm 0.00 in0.0 mm 0.00 in0.0 mm
01:19 AM 23.4°F-4.8°C 20.1°F-6.6°C 82% Calm Calm 0.7 mph1.1 kmh 29.48 in998.3 mb 0.00 in0.0 mm 0.00 in0.0 mm 0.00 in0.0 mm
01:20 AM 23.4°F-4.8°C 20.1°F-6.6°C 82% Calm Calm 0.7 mph1.1 kmh 29.48 in998.3 mb 0.00 in0.0 mm 0.00 in0.0 mm 0.00 in0.0 mm
01:24 AM 23.4°F-4.8°C 20.1°F-6.6°C 82% Calm Calm -- 29.48 in998.3 mb 0.00 in0.0 mm 0.00 in0.0 mm 0.00 in0.0 mm
01:25 AM 23.4°F-4.8°C 20.1°F-6.6°C 82% Calm Calm -- 29.47 in998.0 mb 0.00 in0.0 mm 0.00 in0.0 mm 0.00 in0.0 mm
01:30 AM 23.4°F-4.8°C 20.1°F-6.6°C 82% Calm Calm 0.7 mph1.1 kmh 29.48 in998.3 mb 0.00 in0.0 mm 0.00 in0.0 mm 0.00 in0.0 mm
01:35 AM 23.4°F-4.8°C 20.1°F-6.6°C 82% Calm Calm 0.7 mph1.1 kmh 29.47 in998.0 mb 0.00 in0.0 mm 0.00 in0.0 mm 0.00 in0.0 mm
01:39 AM 23.4°F-4.8°C 20.1°F-6.6°C 82% Calm Calm -- 29.48 in998.3 mb 0.00 in0.0 mm 0.00 in0.0 mm 0.00 in0.0 mm
01:40 AM 23.4°F-4.8°C 20.1°F-6.6°C 82% Calm Calm 0.7 mph1.1 kmh 29.47 in998.0 mb 0.00 in0.0 mm 0.00 in0.0 mm 0.00 in0.0 mm
01:44 AM 23.4°F-4.8°C 20.1°F-6.6°C 82% Calm Calm -- 29.48 in998.3 mb 0.00 in0.0 mm 0.00 in0.0 mm 0.00 in0.0 mm
01:45 AM 23.4°F-4.8°C 20.1°F-6.6°C 82% Calm Calm 0.7 mph1.1 kmh 29.47 in998.0 mb 0.00 in0.0 mm 0.00 in0.0 mm 0.00 in0.0 mm
01:50 AM 23.4°F-4.8°C 20.1°F-6.6°C 82% 0.7 mph SE1.1 kmh SE 1.6 mph2.6 kmh 29.48 in998.3 mb 0.00 in0.0 mm 0.00 in0.0 mm 0.00 in0.0 mm
01:55 AM 23.4°F-4.8°C 20.1°F-6.6°C 82% Calm Calm 0.7 mph1.1 kmh 29.47 in998.0 mb 0.00 in0.0 mm 0.00 in0.0 mm 0.00 in0.0 mm
01:59 AM 23.4°F-4.8°C 20.1°F-6.6°C 82% Calm Calm -- 29.47 in998.0 mb 0.00 in0.0 mm 0.00 in0.0 mm 0.00 in0.0 mm
02:00 AM 23.4°F-4.8°C 20.1°F-6.6°C 82% Calm Calm 0.7 mph1.1 kmh 29.47 in998.0 mb 0.00 in0.0 mm 0.00 in0.0 mm 0.00 in0.0 mm
02:04 AM 23.4°F-4.8°C 20.1°F-6.6°C 82% Calm Calm 0.7 mph1.1 kmh 29.47 in998.0 mb 0.00 in0.0 mm 0.00 in0.0 mm 0.00 in0.0 mm
02:05 AM 23.4°F-4.8°C 20.1°F-6.6°C 82% Calm Calm 1.6 mph2.6 kmh 29.47 in998.0 mb 0.00 in0.0 mm 0.00 in0.0 mm 0.00 in0.0 mm
02:10 AM 23.4°F-4.8°C 20.1°F-6.6°C 82% Calm Calm -- 29.47 in998.0 mb 0.00 in0.0 mm 0.00 in0.0 mm 0.00 in0.0 mm
02:15 AM 23.2°F-4.9°C 19.9°F-6.7°C 82% Calm Calm 0.7 mph1.1 kmh 29.47 in998.0 mb 0.00 in0.0 mm 0.00 in0.0 mm 0.00 in0.0 mm
02:19 AM 23.2°F-4.9°C 19.9°F-6.7°C 82% Calm Calm 1.6 mph2.6 kmh 29.47 in998.0 mb 0.00 in0.0 mm 0.00 in0.0 mm 0.00 in0.0 mm
02:20 AM 23.2°F-4.9°C 19.9°F-6.7°C 82% Calm Calm 0.7 mph1.1 kmh 29.46 in997.6 mb 0.00 in0.0 mm 0.00 in0.0 mm 0.00 in0.0 mm
02:24 AM 23.2°F-4.9°C 19.9°F-6.7°C 82% Calm Calm 0.7 mph1.1 kmh 29.47 in998.0 mb 0.00 in0.0 mm 0.00 in0.0 mm 0.00 in0.0 mm
02:25 AM 23.2°F-4.9°C 19.9°F-6.7°C 82% Calm Calm -- 29.47 in998.0 mb 0.00 in0.0 mm 0.00 in0.0 mm 0.00 in0.0 mm
02:30 AM 23.2°F-4.9°C 19.9°F-6.7°C 82% Calm Calm 0.7 mph1.1 kmh 29.47 in998.0 mb 0.00 in0.0 mm 0.00 in0.0 mm 0.00 in0.0 mm
02:35 AM 23.2°F-4.9°C 19.9°F-6.7°C 82% Calm Calm 0.7 mph1.1 kmh 29.47 in998.0 mb 0.00 in0.0 mm 0.00 in0.0 mm 0.00 in0.0 mm
02:39 AM 23.2°F-4.9°C 19.9°F-6.7°C 82% Calm Calm 1.6 mph2.6 kmh 29.46 in997.6 mb 0.00 in0.0 mm 0.00 in0.0 mm 0.00 in0.0 mm
02:40 AM 23.2°F-4.9°C 19.9°F-6.7°C 82% Calm Calm 1.6 mph2.6 kmh 29.46 in997.6 mb 0.00 in0.0 mm 0.00 in0.0 mm 0.00 in0.0 mm
02:44 AM 23.2°F-4.9°C 19.9°F-6.7°C 82% Calm Calm -- 29.46 in997.6 mb 0.00 in0.0 mm 0.00 in0.0 mm 0.00 in0.0 mm
02:45 AM 23.0°F-5.0°C 19.8°F-6.8°C 82% Calm Calm 0.7 mph1.1 kmh 29.47 in998.0 mb 0.00 in0.0 mm 0.00 in0.0 mm 0.00 in0.0 mm
02:50 AM 23.0°F-5.0°C 19.8°F-6.8°C 82% Calm Calm 0.7 mph1.1 kmh 29.46 in997.6 mb 0.00 in0.0 mm 0.00 in0.0 mm 0.00 in0.0 mm
02:55 AM 23.0°F-5.0°C 19.8°F-6.8°C 82% Calm Calm 0.7 mph1.1 kmh 29.45 in997.3 mb 0.00 in0.0 mm 0.00 in0.0 mm 0.00 in0.0 mm
02:59 AM 23.0°F-5.0°C 19.8°F-6.8°C 82% Calm Calm 0.7 mph1.1 kmh 29.46 in997.6 mb 0.00 in0.0 mm 0.00 in0.0 mm 0.00 in0.0 mm
03:00 AM 23.0°F-5.0°C 19.8°F-6.8°C 82% Calm Calm -- 29.46 in997.6 mb 0.00 in0.0 mm 0.00 in0.0 mm 0.00 in0.0 mm
03:04 AM 22.8°F-5.1°C 19.8°F-6.8°C 83% Calm Calm 0.7 mph1.1 kmh 29.46 in997.6 mb 0.00 in0.0 mm 0.00 in0.0 mm 0.00 in0.0 mm
03:05 AM 22.8°F-5.1°C 19.8°F-6.8°C 83% Calm Calm -- 29.46 in997.6 mb 0.00 in0.0 mm 0.00 in0.0 mm 0.00 in0.0 mm
03:10 AM 22.8°F-5.1°C 19.8°F-6.8°C 83% Calm Calm -- 29.45 in997.3 mb 0.00 in0.0 mm 0.00 in0.0 mm 0.00 in0.0 mm
03:15 AM 22.6°F-5.2°C 19.6°F-6.9°C 83% Calm Calm 0.7 mph1.1 kmh 29.44 in997.0 mb 0.00 in0.0 mm 0.00 in0.0 mm 0.00 in0.0 mm
03:19 AM 22.6°F-5.2°C 19.6°F-6.9°C 83% Calm Calm -- 29.44 in997.0 mb 0.00 in0.0 mm 0.00 in0.0 mm 0.00 in0.0 mm
03:20 AM 22.6°F-5.2°C 19.6°F-6.9°C 83% Calm Calm 0.7 mph1.1 kmh 29.45 in997.3 mb 0.00 in0.0 mm 0.00 in0.0 mm 0.00 in0.0 mm
03:24 AM 22.6°F-5.2°C 19.6°F-6.9°C 83% Calm Calm 1.6 mph2.6 kmh 29.44 in997.0 mb 0.00 in0.0 mm 0.00 in0.0 mm 0.00 in0.0 mm
03:25 AM 22.6°F-5.2°C 19.6°F-6.9°C 83% Calm Calm 0.7 mph1.1 kmh 29.44 in997.0 mb 0.00 in0.0 mm 0.00 in0.0 mm 0.00 in0.0 mm
03:30 AM 22.5°F-5.3°C 19.4°F-7.0°C 83% Calm Calm 1.6 mph2.6 kmh 29.44 in997.0 mb 0.00 in0.0 mm 0.00 in0.0 mm 0.00 in0.0 mm
03:35 AM 22.5°F-5.3°C 19.4°F-7.0°C 83% Calm Calm 0.7 mph1.1 kmh 29.43 in996.6 mb 0.00 in0.0 mm 0.00 in0.0 mm 0.00 in0.0 mm
03:39 AM 22.5°F-5.3°C 19.4°F-7.0°C 83% Calm Calm 1.6 mph2.6 kmh 29.43 in996.6 mb 0.00 in0.0 mm 0.00 in0.0 mm 0.00 in0.0 mm
03:40 AM 22.5°F-5.3°C 19.4°F-7.0°C 83% Calm Calm 1.6 mph2.6 kmh 29.43 in996.6 mb 0.00 in0.0 mm 0.00 in0.0 mm 0.00 in0.0 mm
03:44 AM 22.5°F-5.3°C 19.4°F-7.0°C 83% 0.7 mph NE1.1 kmh NE 2.2 mph3.5 kmh 29.44 in997.0 mb 0.00 in0.0 mm 0.00 in0.0 mm 0.00 in0.0 mm
03:45 AM 22.5°F-5.3°C 19.4°F-7.0°C 83% Calm Calm 0.7 mph1.1 kmh 29.43 in996.6 mb 0.00 in0.0 mm 0.00 in0.0 mm 0.00 in0.0 mm
03:50 AM 22.3°F-5.4°C 19.2°F-7.1°C 83% 1.6 mph NE2.6 kmh NE 2.2 mph3.5 kmh 29.43 in996.6 mb 0.00 in0.0 mm 0.00 in0.0 mm 0.00 in0.0 mm
03:55 AM 22.1°F-5.5°C 19.1°F-7.2°C 83% 0.7 mph 1.1 kmh 3.1 mph5.0 kmh 29.42 in996.3 mb 0.00 in0.0 mm 0.00 in0.0 mm 0.00 in0.0 mm
03:59 AM 22.1°F-5.5°C 19.1°F-7.2°C 83% 0.7 mph E1.1 kmh E 3.8 mph6.1 kmh 29.42 in996.3 mb 0.00 in0.0 mm 0.00 in0.0 mm 0.00 in0.0 mm
04:00 AM 22.1°F-5.5°C 19.1°F-7.2°C 83% Calm Calm 1.6 mph2.6 kmh 29.42 in996.3 mb 0.00 in0.0 mm 0.00 in0.0 mm 0.00 in0.0 mm
04:04 AM 22.1°F-5.5°C 19.1°F-7.2°C 83% 0.7 mph S1.1 kmh S 1.6 mph2.6 kmh 29.42 in996.3 mb 0.00 in0.0 mm 0.00 in0.0 mm 0.00 in0.0 mm
04:05 AM 21.9°F-5.6°C 18.9°F-7.3°C 83% Calm Calm 1.6 mph2.6 kmh 29.42 in996.3 mb 0.00 in0.0 mm 0.00 in0.0 mm 0.00 in0.0 mm
04:10 AM 21.9°F-5.6°C 18.9°F-7.3°C 83% Calm Calm 0.7 mph1.1 kmh 29.42 in996.3 mb 0.00 in0.0 mm 0.00 in0.0 mm 0.00 in0.0 mm
04:15 AM 21.7°F-5.7°C 18.7°F-7.4°C 83% Calm Calm 2.2 mph3.5 kmh 29.42 in996.3 mb 0.00 in0.0 mm 0.00 in0.0 mm 0.00 in0.0 mm
04:19 AM 21.7°F-5.7°C 18.7°F-7.4°C 83% Calm Calm 2.2 mph3.5 kmh 29.41 in995.9 mb 0.00 in0.0 mm 0.00 in0.0 mm 0.00 in0.0 mm
04:20 AM 21.7°F-5.7°C 18.7°F-7.4°C 83% Calm Calm 0.7 mph1.1 kmh 29.42 in996.3 mb 0.00 in0.0 mm 0.00 in0.0 mm 0.00 in0.0 mm
04:24 AM 21.7°F-5.7°C 18.7°F-7.4°C 83% 0.7 mph NNE1.1 kmh NNE 3.8 mph6.1 kmh 29.41 in995.9 mb 0.00 in0.0 mm 0.00 in0.0 mm 0.00 in0.0 mm
04:25 AM 21.7°F-5.7°C 18.7°F-7.4°C 83% 0.7 mph SE1.1 kmh SE 3.1 mph5.0 kmh 29.41 in995.9 mb 0.00 in0.0 mm 0.00 in0.0 mm 0.00 in0.0 mm
04:30 AM 21.6°F-5.8°C 18.5°F-7.5°C 83% Calm Calm 0.7 mph1.1 kmh 29.41 in995.9 mb 0.00 in0.0 mm 0.00 in0.0 mm 0.00 in0.0 mm
04:35 AM 21.6°F-5.8°C 18.5°F-7.5°C 83% Calm Calm 1.6 mph2.6 kmh 29.42 in996.3 mb 0.00 in0.0 mm 0.00 in0.0 mm 0.00 in0.0 mm
04:39 AM 21.4°F-5.9°C 18.2°F-7.7°C 82% 0.7 mph 1.1 kmh 3.1 mph5.0 kmh 29.41 in995.9 mb 0.00 in0.0 mm 0.00 in0.0 mm 0.00 in0.0 mm
04:40 AM 21.6°F-5.8°C 18.4°F-7.6°C 82% Calm Calm 1.6 mph2.6 kmh 29.41 in995.9 mb 0.00 in0.0 mm 0.00 in0.0 mm 0.00 in0.0 mm
04:44 AM 21.4°F-5.9°C 18.2°F-7.7°C 82% Calm Calm 0.7 mph1.1 kmh 29.41 in995.9 mb 0.00 in0.0 mm 0.00 in0.0 mm 0.00 in0.0 mm
04:45 AM 21.4°F-5.9°C 18.2°F-7.7°C 82% Calm Calm 0.7 mph1.1 kmh 29.41 in995.9 mb 0.00 in0.0 mm 0.00 in0.0 mm 0.00 in0.0 mm
04:50 AM 21.2°F-6.0°C 18.0°F-7.8°C 82% Calm Calm 0.7 mph1.1 kmh 29.41 in995.9 mb 0.00 in0.0 mm 0.00 in0.0 mm 0.00 in0.0 mm
04:55 AM 21.2°F-6.0°C 18.0°F-7.8°C 82% Calm Calm -- 29.41 in995.9 mb 0.00 in0.0 mm 0.00 in0.0 mm 0.00 in0.0 mm
04:59 AM 21.0°F-6.1°C 18.0°F-7.8°C 83% Calm Calm 1.6 mph2.6 kmh 29.40 in995.6 mb 0.00 in0.0 mm 0.00 in0.0 mm 0.00 in0.0 mm
05:00 AM 21.0°F-6.1°C 18.0°F-7.8°C 83% 1.6 mph NE2.6 kmh NE 4.5 mph7.2 kmh 29.41 in995.9 mb 0.00 in0.0 mm 0.00 in0.0 mm 0.00 in0.0 mm
05:04 AM 20.8°F-6.2°C 17.8°F-7.9°C 83% Calm Calm 0.7 mph1.1 kmh 29.40 in995.6 mb 0.00 in0.0 mm 0.00 in0.0 mm 0.00 in0.0 mm
05:05 AM 20.8°F-6.2°C 17.8°F-7.9°C 83% Calm Calm 1.6 mph2.6 kmh 29.40 in995.6 mb 0.00 in0.0 mm 0.00 in0.0 mm 0.00 in0.0 mm
05:10 AM 20.7°F-6.3°C 17.7°F-7.9°C 83% Calm Calm 0.7 mph1.1 kmh 29.40 in995.6 mb 0.00 in0.0 mm 0.00 in0.0 mm 0.00 in0.0 mm
05:15 AM 20.5°F-6.4°C 17.5°F-8.1°C 83% Calm Calm 1.6 mph2.6 kmh 29.39 in995.3 mb 0.00 in0.0 mm 0.00 in0.0 mm 0.00 in0.0 mm
05:19 AM 20.5°F-6.4°C 17.5°F-8.1°C 83% Calm Calm 1.6 mph2.6 kmh 29.39 in995.3 mb 0.00 in0.0 mm 0.00 in0.0 mm 0.00 in0.0 mm
05:20 AM 20.5°F-6.4°C 17.5°F-8.1°C 83% Calm Calm 0.7 mph1.1 kmh 29.39 in995.3 mb 0.00 in0.0 mm 0.00 in0.0 mm 0.00 in0.0 mm
05:24 AM 20.3°F-6.5°C 17.3°F-8.2°C 83% Calm Calm -- 29.40 in995.6 mb 0.00 in0.0 mm 0.00 in0.0 mm 0.00 in0.0 mm
05:25 AM 20.3°F-6.5°C 17.3°F-8.2°C 83% 0.7 mph E1.1 kmh E 3.8 mph6.1 kmh 29.39 in995.3 mb 0.00 in0.0 mm 0.00 in0.0 mm 0.00 in0.0 mm
05:30 AM 20.3°F-6.5°C 17.3°F-8.2°C 83% Calm Calm 1.6 mph2.6 kmh 29.39 in995.3 mb 0.00 in0.0 mm 0.00 in0.0 mm 0.00 in0.0 mm
05:35 AM 20.1°F-6.6°C 17.1°F-8.3°C 83% Calm Calm -- 29.39 in995.3 mb 0.00 in0.0 mm 0.00 in0.0 mm 0.00 in0.0 mm
05:39 AM 20.1°F-6.6°C 17.1°F-8.3°C 83% 0.7 mph E1.1 kmh E 1.6 mph2.6 kmh 29.39 in995.3 mb 0.00 in0.0 mm 0.00 in0.0 mm 0.00 in0.0 mm
05:40 AM 20.1°F-6.6°C 17.1°F-8.3°C 83% Calm Calm 1.6 mph2.6 kmh 29.39 in995.3 mb 0.00 in0.0 mm 0.00 in0.0 mm 0.00 in0.0 mm
05:44 AM 20.1°F-6.6°C 17.1°F-8.3°C 83% 0.7 mph NE1.1 kmh NE 2.2 mph3.5 kmh 29.39 in995.3 mb 0.00 in0.0 mm 0.00 in0.0 mm 0.00 in0.0 mm
05:45 AM 19.9°F-6.7°C 17.0°F-8.3°C 83% Calm Calm 0.7 mph1.1 kmh 29.39 in995.3 mb 0.00 in0.0 mm 0.00 in0.0 mm 0.00 in0.0 mm
05:50 AM 19.9°F-6.7°C 17.0°F-8.3°C 83% Calm Calm 1.6 mph2.6 kmh 29.39 in995.3 mb 0.00 in0.0 mm 0.00 in0.0 mm 0.00 in0.0 mm
05:55 AM 19.8°F-6.8°C 16.8°F-8.4°C 83% Calm Calm 1.6 mph2.6 kmh 29.38 in994.9 mb 0.00 in0.0 mm 0.00 in0.0 mm 0.00 in0.0 mm
05:59 AM 19.8°F-6.8°C 16.8°F-8.4°C 83% Calm Calm 0.7 mph1.1 kmh 29.38 in994.9 mb 0.00 in0.0 mm 0.00 in0.0 mm 0.00 in0.0 mm
06:00 AM 19.8°F-6.8°C 16.8°F-8.4°C 83% Calm Calm 2.2 mph3.5 kmh 29.38 in994.9 mb 0.00 in0.0 mm 0.00 in0.0 mm 0.00 in0.0 mm
06:04 AM 19.8°F-6.8°C 16.8°F-8.4°C 83% Calm Calm 1.6 mph2.6 kmh 29.39 in995.3 mb 0.00 in0.0 mm 0.00 in0.0 mm 0.00 in0.0 mm
06:05 AM 19.8°F-6.8°C 16.8°F-8.4°C 83% 0.7 mph S1.1 kmh S 3.1 mph5.0 kmh 29.38 in994.9 mb 0.00 in0.0 mm 0.00 in0.0 mm 0.00 in0.0 mm
06:10 AM 19.6°F-6.9°C 16.6°F-8.6°C 83% Calm Calm 0.7 mph1.1 kmh 29.38 in994.9 mb 0.00 in0.0 mm 0.00 in0.0 mm 0.00 in0.0 mm
06:15 AM 19.6°F-6.9°C 16.6°F-8.6°C 83% Calm Calm 0.7 mph1.1 kmh 29.38 in994.9 mb 0.00 in0.0 mm 0.00 in0.0 mm 0.00 in0.0 mm
06:19 AM 19.4°F-7.0°C 16.4°F-8.7°C 83% Calm Calm 1.6 mph2.6 kmh 29.38 in994.9 mb 0.00 in0.0 mm 0.00 in0.0 mm 0.00 in0.0 mm
06:20 AM 19.6°F-6.9°C 16.6°F-8.6°C 83% 0.7 mph SE1.1 kmh SE 2.2 mph3.5 kmh 29.38 in994.9 mb 0.00 in0.0 mm 0.00 in0.0 mm 0.00 in0.0 mm
06:24 AM 19.4°F-7.0°C 16.4°F-8.7°C 83% Calm Calm -- 29.38 in994.9 mb 0.00 in0.0 mm 0.00 in0.0 mm 0.00 in0.0 mm
06:25 AM 19.4°F-7.0°C 16.4°F-8.7°C 83% Calm Calm 0.7 mph1.1 kmh 29.38 in994.9 mb 0.00 in0.0 mm 0.00 in0.0 mm 0.00 in0.0 mm
06:30 AM 19.4°F-7.0°C 16.4°F-8.7°C 83% Calm Calm 0.7 mph1.1 kmh 29.37 in994.6 mb 0.00 in0.0 mm 0.00 in0.0 mm 0.00 in0.0 mm
06:35 AM 19.2°F-7.1°C 15.5°F-9.2°C 79% Calm Calm 2.2 mph3.5 kmh 29.37 in994.6 mb 0.00 in0.0 mm 0.00 in0.0 mm 0.00 in0.0 mm
06:39 AM 19.0°F-7.2°C 15.3°F-9.3°C 79% Calm Calm 0.7 mph1.1 kmh 29.37 in994.6 mb 0.00 in0.0 mm 0.00 in0.0 mm 0.00 in0.0 mm
06:40 AM 19.2°F-7.1°C 15.5°F-9.2°C 79% 0.7 mph NE1.1 kmh NE 2.2 mph3.5 kmh 29.37 in994.6 mb 0.00 in0.0 mm 0.00 in0.0 mm 0.00 in0.0 mm
06:44 AM 19.0°F-7.2°C 15.3°F-9.3°C 79% 0.7 mph SE1.1 kmh SE 1.6 mph2.6 kmh 29.37 in994.6 mb 0.00 in0.0 mm 0.00 in0.0 mm 0.00 in0.0 mm
06:45 AM 19.0°F-7.2°C 15.3°F-9.3°C 79% Calm Calm 1.6 mph2.6 kmh 29.37 in994.6 mb 0.00 in0.0 mm 0.00 in0.0 mm 0.00 in0.0 mm
06:50 AM 18.9°F-7.3°C 15.1°F-9.4°C 79% Calm Calm -- 29.36 in994.2 mb 0.00 in0.0 mm 0.00 in0.0 mm 0.00 in0.0 mm
06:55 AM 18.9°F-7.3°C 15.1°F-9.4°C 79% Calm Calm 2.2 mph3.5 kmh 29.36 in994.2 mb 0.00 in0.0 mm 0.00 in0.0 mm 0.00 in0.0 mm
06:59 AM 18.9°F-7.3°C 15.1°F-9.4°C 79% Calm Calm 0.7 mph1.1 kmh 29.36 in994.2 mb 0.00 in0.0 mm 0.00 in0.0 mm 0.00 in0.0 mm
07:00 AM 18.9°F-7.3°C 15.1°F-9.4°C 79% 0.7 mph SE1.1 kmh SE 3.1 mph5.0 kmh 29.36 in994.2 mb 0.00 in0.0 mm 0.00 in0.0 mm 0.00 in0.0 mm
07:04 AM 18.9°F-7.3°C 15.1°F-9.4°C 79% 1.6 mph NE2.6 kmh NE 3.8 mph6.1 kmh 29.36 in994.2 mb 0.00 in0.0 mm 0.00 in0.0 mm 0.00 in0.0 mm
07:05 AM 18.9°F-7.3°C 15.1°F-9.4°C 79% Calm Calm 1.6 mph2.6 kmh 29.36 in994.2 mb 0.00 in0.0 mm 0.00 in0.0 mm 0.00 in0.0 mm
07:10 AM 18.9°F-7.3°C 15.1°F-9.4°C 79% Calm Calm 1.6 mph2.6 kmh 29.35 in993.9 mb 0.00 in0.0 mm 0.00 in0.0 mm 0.00 in0.0 mm
07:15 AM 18.9°F-7.3°C 15.1°F-9.4°C 79% 2.2 mph 3.5 kmh 4.5 mph7.2 kmh 29.35 in993.9 mb 0.00 in0.0 mm 0.00 in0.0 mm 0.00 in0.0 mm
07:19 AM 18.9°F-7.3°C 15.1°F-9.4°C 79% Calm Calm 0.7 mph1.1 kmh 29.35 in993.9 mb 0.00 in0.0 mm 0.00 in0.0 mm 0.00 in0.0 mm
07:20 AM 18.9°F-7.3°C 15.1°F-9.4°C 79% Calm Calm 1.6 mph2.6 kmh 29.36 in994.2 mb 0.00 in0.0 mm 0.00 in0.0 mm 0.00 in0.0 mm
07:24 AM 18.9°F-7.3°C 15.1°F-9.4°C 79% Calm Calm 0.7 mph1.1 kmh 29.35 in993.9 mb 0.00 in0.0 mm 0.00 in0.0 mm 0.00 in0.0 mm
07:25 AM 18.9°F-7.3°C 15.1°F-9.4°C 79% Calm Calm -- 29.35 in993.9 mb 0.00 in0.0 mm 0.00 in0.0 mm 0.00 in0.0 mm
07:30 AM 18.9°F-7.3°C 15.1°F-9.4°C 79% Calm Calm -- 29.34 in993.6 mb 0.00 in0.0 mm 0.00 in0.0 mm 0.00 in0.0 mm
07:35 AM 18.9°F-7.3°C 15.1°F-9.4°C 79% Calm Calm 0.7 mph1.1 kmh 29.34 in993.6 mb 0.00 in0.0 mm 0.00 in0.0 mm 0.00 in0.0 mm
07:39 AM 18.9°F-7.3°C 15.1°F-9.4°C 79% Calm Calm -- 29.34 in993.6 mb 0.00 in0.0 mm 0.00 in0.0 mm 0.00 in0.0 mm
07:40 AM 18.9°F-7.3°C 15.1°F-9.4°C 79% Calm Calm 0.7 mph1.1 kmh 29.34 in993.6 mb 0.00 in0.0 mm 0.00 in0.0 mm 0.00 in0.0 mm
07:44 AM 18.9°F-7.3°C 15.1°F-9.4°C 79% Calm Calm -- 29.34 in993.6 mb 0.00 in0.0 mm 0.00 in0.0 mm 0.00 in0.0 mm
07:45 AM 18.9°F-7.3°C 15.1°F-9.4°C 79% Calm Calm 0.7 mph1.1 kmh 29.33 in993.2 mb 0.00 in0.0 mm 0.00 in0.0 mm 0.00 in0.0 mm
07:50 AM 18.9°F-7.3°C 15.1°F-9.4°C 79% 0.7 mph E1.1 kmh E 3.1 mph5.0 kmh 29.33 in993.2 mb 0.00 in0.0 mm 0.00 in0.0 mm 0.00 in0.0 mm
07:55 AM 18.7°F-7.4°C 15.0°F-9.4°C 79% Calm Calm -- 29.34 in993.6 mb 0.00 in0.0 mm 0.00 in0.0 mm 0.00 in0.0 mm
07:59 AM 18.7°F-7.4°C 15.0°F-9.4°C 79% Calm Calm 0.7 mph1.1 kmh 29.33 in993.2 mb 0.00 in0.0 mm 0.00 in0.0 mm 0.00 in0.0 mm
08:00 AM 18.7°F-7.4°C 15.0°F-9.4°C 79% Calm Calm 0.7 mph1.1 kmh 29.33 in993.2 mb 0.00 in0.0 mm 0.00 in0.0 mm 0.00 in0.0 mm
08:04 AM 18.7°F-7.4°C 14.8°F-9.6°C 78% Calm Calm 1.6 mph2.6 kmh 29.33 in993.2 mb 0.00 in0.0 mm 0.00 in0.0 mm 0.00 in0.0 mm
08:05 AM 18.7°F-7.4°C 14.8°F-9.6°C 78% Calm Calm 0.7 mph1.1 kmh 29.33 in993.2 mb 0.00 in0.0 mm 0.00 in0.0 mm 0.00 in0.0 mm
08:10 AM 18.7°F-7.4°C 14.8°F-9.6°C 78% Calm Calm -- 29.32 in992.9 mb 0.00 in0.0 mm 0.00 in0.0 mm 0.00 in0.0 mm
08:15 AM 18.7°F-7.4°C 14.8°F-9.6°C 78% Calm Calm 0.7 mph1.1 kmh 29.32 in992.9 mb 0.00 in0.0 mm 0.00 in0.0 mm 0.00 in0.0 mm
08:19 AM 18.7°F-7.4°C 14.8°F-9.6°C 78% 0.7 mph NE1.1 kmh NE 3.1 mph5.0 kmh 29.32 in992.9 mb 0.00 in0.0 mm 0.00 in0.0 mm 0.00 in0.0 mm
08:20 AM 18.7°F-7.4°C 14.8°F-9.6°C 78% Calm Calm 0.7 mph1.1 kmh 29.32 in992.9 mb 0.00 in0.0 mm 0.00 in0.0 mm 0.00 in0.0 mm
08:24 AM 18.7°F-7.4°C 14.8°F-9.6°C 78% 0.7 mph SE1.1 kmh SE 2.2 mph3.5 kmh 29.32 in992.9 mb 0.00 in0.0 mm 0.00 in0.0 mm 0.00 in0.0 mm
08:25 AM 18.7°F-7.4°C 14.8°F-9.6°C 78% 2.2 mph ENE3.5 kmh ENE 4.5 mph7.2 kmh 29.32 in992.9 mb 0.00 in0.0 mm 0.00 in0.0 mm 0.00 in0.0 mm
08:30 AM 18.7°F-7.4°C 14.8°F-9.6°C 78% Calm Calm 0.7 mph1.1 kmh 29.31 in992.6 mb 0.00 in0.0 mm 0.00 in0.0 mm 0.00 in0.0 mm
08:35 AM 18.7°F-7.4°C 14.8°F-9.6°C 78% Calm Calm 1.6 mph2.6 kmh 29.31 in992.6 mb 0.00 in0.0 mm 0.00 in0.0 mm 0.00 in0.0 mm
08:39 AM 18.7°F-7.4°C 14.8°F-9.6°C 78% Calm Calm 0.7 mph1.1 kmh 29.31 in992.6 mb 0.00 in0.0 mm 0.00 in0.0 mm 0.00 in0.0 mm
08:40 AM 18.7°F-7.4°C 14.8°F-9.6°C 78% Calm Calm 0.7 mph1.1 kmh 29.31 in992.6 mb 0.00 in0.0 mm 0.00 in0.0 mm 0.00 in0.0 mm
08:44 AM 18.5°F-7.5°C 14.6°F-9.7°C 78% Calm Calm -- 29.31 in992.6 mb 0.00 in0.0 mm 0.00 in0.0 mm 0.00 in0.0 mm
08:45 AM 18.5°F-7.5°C 14.6°F-9.7°C 78% Calm Calm 0.7 mph1.1 kmh 29.31 in992.6 mb 0.00 in0.0 mm 0.00 in0.0 mm 0.00 in0.0 mm
08:50 AM 18.5°F-7.5°C 14.6°F-9.7°C 78% Calm Calm 0.7 mph1.1 kmh 29.31 in992.6 mb 0.00 in0.0 mm 0.00 in0.0 mm 0.00 in0.0 mm
08:55 AM 18.5°F-7.5°C 14.6°F-9.7°C 78% 0.7 mph 1.1 kmh 3.1 mph5.0 kmh 29.30 in992.2 mb 0.00 in0.0 mm 0.00 in0.0 mm 0.00 in0.0 mm
08:59 AM 18.5°F-7.5°C 14.6°F-9.7°C 78% Calm Calm 0.7 mph1.1 kmh 29.31 in992.6 mb 0.00 in0.0 mm 0.00 in0.0 mm 0.00 in0.0 mm
09:00 AM 18.5°F-7.5°C 14.6°F-9.7°C 78% Calm Calm 2.2 mph3.5 kmh 29.30 in992.2 mb 0.00 in0.0 mm 0.00 in0.0 mm 0.00 in0.0 mm
09:04 AM 18.5°F-7.5°C 14.6°F-9.7°C 78% Calm Calm 1.6 mph2.6 kmh 29.30 in992.2 mb 0.00 in0.0 mm 0.00 in0.0 mm 0.00 in0.0 mm
09:05 AM 18.3°F-7.6°C 14.4°F-9.8°C 78% Calm Calm 2.2 mph3.5 kmh 29.31 in992.6 mb 0.00 in0.0 mm 0.00 in0.0 mm 0.00 in0.0 mm
09:10 AM 18.3°F-7.6°C 14.4°F-9.8°C 78% 1.6 mph NE2.6 kmh NE 3.1 mph5.0 kmh 29.30 in992.2 mb 0.00 in0.0 mm 0.00 in0.0 mm 0.00 in0.0 mm
09:15 AM 18.3°F-7.6°C 14.4°F-9.8°C 78% 0.7 mph 1.1 kmh 3.1 mph5.0 kmh 29.30 in992.2 mb 0.00 in0.0 mm 0.00 in0.0 mm 0.00 in0.0 mm
09:19 AM 18.3°F-7.6°C 14.4°F-9.8°C 78% Calm Calm 1.6 mph2.6 kmh 29.30 in992.2 mb 0.00 in0.0 mm 0.00 in0.0 mm 0.00 in0.0 mm
09:20 AM 18.3°F-7.6°C 14.4°F-9.8°C 78% 0.7 mph E1.1 kmh E 3.1 mph5.0 kmh 29.30 in992.2 mb 0.00 in0.0 mm 0.00 in0.0 mm 0.00 in0.0 mm
09:24 AM 18.3°F-7.6°C 14.4°F-9.8°C 78% 0.7 mph E1.1 kmh E 3.1 mph5.0 kmh 29.30 in992.2 mb 0.00 in0.0 mm 0.00 in0.0 mm 0.00 in0.0 mm
09:25 AM 18.3°F-7.6°C 14.4°F-9.8°C 78% Calm Calm 0.7 mph1.1 kmh 29.29 in991.9 mb 0.00 in0.0 mm 0.00 in0.0 mm 0.00 in0.0 mm
09:30 AM 18.1°F-7.7°C 14.2°F-9.9°C 78% 2.2 mph SE3.5 kmh SE 4.5 mph7.2 kmh 29.28 in991.5 mb 0.00 in0.0 mm 0.00 in0.0 mm 0.00 in0.0 mm
09:35 AM 18.1°F-7.7°C 14.2°F-9.9°C 78% Calm Calm 1.6 mph2.6 kmh 29.29 in991.9 mb 0.00 in0.0 mm 0.00 in0.0 mm 0.00 in0.0 mm
09:39 AM 18.1°F-7.7°C 14.2°F-9.9°C 78% Calm Calm 1.6 mph2.6 kmh 29.28 in991.5 mb 0.00 in0.0 mm 0.00 in0.0 mm 0.00 in0.0 mm
09:40 AM 18.1°F-7.7°C 14.2°F-9.9°C 78% 0.7 mph E1.1 kmh E 1.6 mph2.6 kmh 29.29 in991.9 mb 0.00 in0.0 mm 0.00 in0.0 mm 0.00 in0.0 mm
09:44 AM 18.1°F-7.7°C 14.2°F-9.9°C 78% 0.7 mph NE1.1 kmh NE 2.2 mph3.5 kmh 29.28 in991.5 mb 0.00 in0.0 mm 0.00 in0.0 mm 0.00 in0.0 mm
09:45 AM 18.1°F-7.7°C 14.2°F-9.9°C 78% 1.6 mph SE2.6 kmh SE 3.1 mph5.0 kmh 29.28 in991.5 mb 0.00 in0.0 mm 0.00 in0.0 mm 0.00 in0.0 mm
09:50 AM 18.1°F-7.7°C 14.2°F-9.9°C 78% Calm Calm 0.7 mph1.1 kmh 29.28 in991.5 mb 0.00 in0.0 mm 0.00 in0.0 mm 0.00 in0.0 mm
09:55 AM 18.1°F-7.7°C 14.2°F-9.9°C 78% 0.7 mph E1.1 kmh E 1.6 mph2.6 kmh 29.27 in991.2 mb 0.00 in0.0 mm 0.00 in0.0 mm 0.00 in0.0 mm
09:59 AM 18.3°F-7.6°C 14.4°F-9.8°C 78% Calm Calm 1.6 mph2.6 kmh 29.27 in991.2 mb 0.00 in0.0 mm 0.00 in0.0 mm 0.00 in0.0 mm
10:00 AM 18.3°F-7.6°C 14.4°F-9.8°C 78% Calm Calm 1.6 mph2.6 kmh 29.28 in991.5 mb 0.00 in0.0 mm 0.00 in0.0 mm 0.00 in0.0 mm
10:04 AM 18.3°F-7.6°C 14.4°F-9.8°C 78% Calm Calm 1.6 mph2.6 kmh 29.27 in991.2 mb 0.00 in0.0 mm 0.00 in0.0 mm 0.00 in0.0 mm
10:05 AM 18.3°F-7.6°C 14.4°F-9.8°C 78% 0.7 mph NE1.1 kmh NE 2.2 mph3.5 kmh 29.27 in991.2 mb 0.00 in0.0 mm 0.00 in0.0 mm 0.00 in0.0 mm
10:10 AM 18.3°F-7.6°C 14.4°F-9.8°C 78% Calm Calm 1.6 mph2.6 kmh 29.27 in991.2 mb 0.00 in0.0 mm 0.00 in0.0 mm 0.00 in0.0 mm
10:15 AM 18.3°F-7.6°C 14.4°F-9.8°C 78% 0.7 mph SE1.1 kmh SE 2.2 mph3.5 kmh 29.26 in990.9 mb 0.00 in0.0 mm 0.00 in0.0 mm 0.00 in0.0 mm
10:19 AM 18.3°F-7.6°C 14.4°F-9.8°C 78% 0.7 mph 1.1 kmh 4.5 mph7.2 kmh 29.26 in990.9 mb 0.00 in0.0 mm 0.00 in0.0 mm 0.00 in0.0 mm
10:20 AM 18.3°F-7.6°C 14.4°F-9.8°C 78% 1.6 mph SE2.6 kmh SE 3.1 mph5.0 kmh 29.26 in990.9 mb 0.00 in0.0 mm 0.00 in0.0 mm 0.00 in0.0 mm
10:24 AM 18.3°F-7.6°C 14.4°F-9.8°C 78% 2.2 mph NE3.5 kmh NE 3.8 mph6.1 kmh 29.26 in990.9 mb 0.00 in0.0 mm 0.00 in0.0 mm 0.00 in0.0 mm
10:25 AM 18.3°F-7.6°C 14.4°F-9.8°C 78% Calm Calm 1.6 mph2.6 kmh 29.25 in990.5 mb 0.00 in0.0 mm 0.00 in0.0 mm 0.00 in0.0 mm
10:30 AM 18.3°F-7.6°C 14.4°F-9.8°C 78% 1.6 mph ESE2.6 kmh ESE 3.8 mph6.1 kmh 29.25 in990.5 mb 0.00 in0.0 mm 0.00 in0.0 mm 0.00 in0.0 mm
10:35 AM 18.3°F-7.6°C 14.4°F-9.8°C 78% 0.7 mph E1.1 kmh E 1.6 mph2.6 kmh 29.25 in990.5 mb 0.00 in0.0 mm 0.00 in0.0 mm 0.00 in0.0 mm
10:39 AM 18.3°F-7.6°C 14.4°F-9.8°C 78% 0.7 mph E1.1 kmh E 2.2 mph3.5 kmh 29.25 in990.5 mb 0.00 in0.0 mm 0.00 in0.0 mm 0.00 in0.0 mm
10:40 AM 18.3°F-7.6°C 14.4°F-9.8°C 78% 2.2 mph NE3.5 kmh NE 3.8 mph6.1 kmh 29.25 in990.5 mb 0.00 in0.0 mm 0.00 in0.0 mm 0.00 in0.0 mm
10:44 AM 18.5°F-7.5°C 14.6°F-9.7°C 78% 1.6 mph S2.6 kmh S 2.2 mph3.5 kmh 29.25 in990.5 mb 0.00 in0.0 mm 0.00 in0.0 mm 0.00 in0.0 mm
10:45 AM 18.5°F-7.5°C 14.6°F-9.7°C 78% 0.7 mph S1.1 kmh S 3.8 mph6.1 kmh 29.24 in990.2 mb 0.00 in0.0 mm 0.00 in0.0 mm 0.00 in0.0 mm
10:50 AM 18.5°F-7.5°C 14.6°F-9.7°C 78% Calm Calm 1.6 mph2.6 kmh 29.24 in990.2 mb 0.00 in0.0 mm 0.00 in0.0 mm 0.00 in0.0 mm
10:55 AM 18.5°F-7.5°C 14.6°F-9.7°C 78% 0.7 mph NE1.1 kmh NE 2.2 mph3.5 kmh 29.24 in990.2 mb 0.00 in0.0 mm 0.00 in0.0 mm 0.00 in0.0 mm
10:59 AM 18.7°F-7.4°C 14.8°F-9.6°C 78% 1.6 mph NE2.6 kmh NE 3.8 mph6.1 kmh 29.23 in989.8 mb 0.00 in0.0 mm 0.00 in0.0 mm 0.00 in0.0 mm
11:00 AM 18.5°F-7.5°C 14.6°F-9.7°C 78% Calm Calm 1.6 mph2.6 kmh 29.23 in989.8 mb 0.00 in0.0 mm 0.00 in0.0 mm 0.00 in0.0 mm
11:04 AM 18.7°F-7.4°C 14.8°F-9.6°C 78% 0.7 mph SW1.1 kmh SW 2.2 mph3.5 kmh 29.23 in989.8 mb 0.00 in0.0 mm 0.00 in0.0 mm 0.00 in0.0 mm
11:05 AM 18.7°F-7.4°C 14.8°F-9.6°C 78% 0.7 mph NE1.1 kmh NE 1.6 mph2.6 kmh 29.23 in989.8 mb 0.00 in0.0 mm 0.00 in0.0 mm 0.00 in0.0 mm
11:10 AM 18.9°F-7.3°C 14.9°F-9.5°C 78% Calm Calm 1.6 mph2.6 kmh 29.22 in989.5 mb 0.00 in0.0 mm 0.00 in0.0 mm 0.00 in0.0 mm
11:15 AM 18.9°F-7.3°C 14.9°F-9.5°C 78% Calm Calm 0.7 mph1.1 kmh 29.22 in989.5 mb 0.00 in0.0 mm 0.00 in0.0 mm 0.00 in0.0 mm
11:19 AM 18.9°F-7.3°C 14.9°F-9.5°C 78% 1.6 mph E2.6 kmh E 4.5 mph7.2 kmh 29.22 in989.5 mb 0.00 in0.0 mm 0.00 in0.0 mm 0.00 in0.0 mm
11:20 AM 18.9°F-7.3°C 14.9°F-9.5°C 78% Calm Calm 2.2 mph3.5 kmh 29.23 in989.8 mb 0.00 in0.0 mm 0.00 in0.0 mm 0.00 in0.0 mm
11:24 AM 18.9°F-7.3°C 14.9°F-9.5°C 78% Calm Calm 1.6 mph2.6 kmh 29.22 in989.5 mb 0.00 in0.0 mm 0.00 in0.0 mm 0.00 in0.0 mm
11:25 AM 18.9°F-7.3°C 14.9°F-9.5°C 78% 0.7 mph NE1.1 kmh NE 3.1 mph5.0 kmh 29.22 in989.5 mb 0.00 in0.0 mm 0.00 in0.0 mm 0.00 in0.0 mm
11:30 AM 18.9°F-7.3°C 14.9°F-9.5°C 78% Calm Calm 1.6 mph2.6 kmh 29.21 in989.2 mb 0.00 in0.0 mm 0.00 in0.0 mm 0.00 in0.0 mm
11:35 AM 18.9°F-7.3°C 14.9°F-9.5°C 78% 1.6 mph E2.6 kmh E 3.1 mph5.0 kmh 29.21 in989.2 mb 0.00 in0.0 mm 0.00 in0.0 mm 0.00 in0.0 mm
11:39 AM 19.2°F-7.1°C 15.3°F-9.3°C 78% Calm Calm 2.2 mph3.5 kmh 29.21 in989.2 mb 0.00 in0.0 mm 0.00 in0.0 mm 0.00 in0.0 mm
11:40 AM 18.9°F-7.3°C 14.9°F-9.5°C 78% 0.7 mph SE1.1 kmh SE 3.1 mph5.0 kmh 29.21 in989.2 mb 0.00 in0.0 mm 0.00 in0.0 mm 0.00 in0.0 mm
11:44 AM 19.0°F-7.2°C 15.1°F-9.4°C 78% Calm Calm 0.7 mph1.1 kmh 29.21 in989.2 mb 0.00 in0.0 mm 0.00 in0.0 mm 0.00 in0.0 mm
11:45 AM 19.2°F-7.1°C 15.3°F-9.3°C 78% Calm Calm 1.6 mph2.6 kmh 29.21 in989.2 mb 0.00 in0.0 mm 0.00 in0.0 mm 0.00 in0.0 mm
11:50 AM 19.4°F-7.0°C 16.2°F-8.8°C 82% Calm Calm 0.7 mph1.1 kmh 29.21 in989.2 mb 0.00 in0.0 mm 0.00 in0.0 mm 0.00 in0.0 mm
11:55 AM 19.6°F-6.9°C 16.4°F-8.7°C 82% Calm Calm 1.6 mph2.6 kmh 29.21 in989.2 mb 0.00 in0.0 mm 0.00 in0.0 mm 0.00 in0.0 mm
11:59 AM 19.6°F-6.9°C 16.4°F-8.7°C 82% 0.7 mph WSW1.1 kmh WSW 3.1 mph5.0 kmh 29.20 in988.8 mb 0.00 in0.0 mm 0.00 in0.0 mm 0.00 in0.0 mm
12:00 PM 19.6°F-6.9°C 16.4°F-8.7°C 82% 0.7 mph SE1.1 kmh SE 2.2 mph3.5 kmh 29.21 in989.2 mb 0.00 in0.0 mm 0.00 in0.0 mm 0.00 in0.0 mm
12:04 PM 19.6°F-6.9°C 16.4°F-8.7°C 82% 0.7 mph SE1.1 kmh SE 2.2 mph3.5 kmh 29.20 in988.8 mb 0.00 in0.0 mm 0.00 in0.0 mm 0.00 in0.0 mm
12:05 PM 19.6°F-6.9°C 16.4°F-8.7°C 82% Calm Calm 1.6 mph2.6 kmh 29.20 in988.8 mb 0.00 in0.0 mm 0.00 in0.0 mm 0.00 in0.0 mm
12:10 PM 19.8°F-6.8°C 16.6°F-8.6°C 82% Calm Calm 0.7 mph1.1 kmh 29.19 in988.5 mb 0.00 in0.0 mm 0.00 in0.0 mm 0.00 in0.0 mm
12:15 PM 19.6°F-6.9°C 16.4°F-8.7°C 82% Calm Calm 0.7 mph1.1 kmh 29.19 in988.5 mb 0.00 in0.0 mm 0.00 in0.0 mm 0.00 in0.0 mm
12:19 PM 19.8°F-6.8°C 16.6°F-8.6°C 82% Calm Calm 2.2 mph3.5 kmh 29.19 in988.5 mb 0.00 in0.0 mm 0.00 in0.0 mm 0.00 in0.0 mm
12:20 PM 19.6°F-6.9°C 16.4°F-8.7°C 82% Calm Calm 0.7 mph1.1 kmh 29.20 in988.8 mb 0.00 in0.0 mm 0.00 in0.0 mm 0.00 in0.0 mm
12:24 PM 19.8°F-6.8°C 16.6°F-8.6°C 82% 0.7 mph S1.1 kmh S 3.1 mph5.0 kmh 29.19 in988.5 mb 0.00 in0.0 mm 0.00 in0.0 mm 0.00 in0.0 mm
12:25 PM 19.8°F-6.8°C 16.6°F-8.6°C 82% Calm Calm 0.7 mph1.1 kmh 29.19 in988.5 mb 0.00 in0.0 mm 0.00 in0.0 mm 0.00 in0.0 mm
12:30 PM 19.9°F-6.7°C 16.8°F-8.4°C 82% 0.7 mph E1.1 kmh E 3.8 mph6.1 kmh 29.18 in988.1 mb 0.00 in0.0 mm 0.00 in0.0 mm 0.00 in0.0 mm
12:35 PM 19.9°F-6.7°C 16.8°F-8.4°C 82% Calm Calm 0.7 mph1.1 kmh 29.18 in988.1 mb 0.00 in0.0 mm 0.00 in0.0 mm 0.00 in0.0 mm
12:39 PM 19.9°F-6.7°C 16.8°F-8.4°C 82% 0.7 mph ESE1.1 kmh ESE 2.2 mph3.5 kmh 29.18 in988.1 mb 0.00 in0.0 mm 0.00 in0.0 mm 0.00 in0.0 mm
12:40 PM 19.9°F-6.7°C 16.8°F-8.4°C 82% 0.7 mph NE1.1 kmh NE 1.6 mph2.6 kmh 29.18 in988.1 mb 0.00 in0.0 mm 0.00 in0.0 mm 0.00 in0.0 mm
12:44 PM 19.9°F-6.7°C 16.8°F-8.4°C 82% Calm Calm 0.7 mph1.1 kmh 29.17 in987.8 mb 0.00 in0.0 mm 0.00 in0.0 mm 0.00 in0.0 mm
12:45 PM 19.9°F-6.7°C 16.8°F-8.4°C 82% 0.7 mph E1.1 kmh E 1.6 mph2.6 kmh 29.17 in987.8 mb 0.00 in0.0 mm 0.00 in0.0 mm 0.00 in0.0 mm
12:50 PM 19.9°F-6.7°C 16.8°F-8.4°C 82% Calm Calm 2.2 mph3.5 kmh 29.17 in987.8 mb 0.00 in0.0 mm 0.00 in0.0 mm 0.00 in0.0 mm
12:55 PM 19.9°F-6.7°C 16.8°F-8.4°C 82% 1.6 mph S2.6 kmh S 3.8 mph6.1 kmh 29.16 in987.5 mb 0.00 in0.0 mm 0.00 in0.0 mm 0.00 in0.0 mm
12:59 PM 20.1°F-6.6°C 16.9°F-8.4°C 82% 2.2 mph NE3.5 kmh NE 3.8 mph6.1 kmh 29.15 in987.1 mb 0.00 in0.0 mm 0.00 in0.0 mm 0.00 in0.0 mm
01:00 PM 20.1°F-6.6°C 16.9°F-8.4°C 82% 1.6 mph SE2.6 kmh SE 3.1 mph5.0 kmh 29.16 in987.5 mb 0.00 in0.0 mm 0.00 in0.0 mm 0.00 in0.0 mm
01:04 PM 20.1°F-6.6°C 16.9°F-8.4°C 82% 0.7 mph E1.1 kmh E 3.1 mph5.0 kmh 29.16 in987.5 mb 0.00 in0.0 mm 0.00 in0.0 mm 0.00 in0.0 mm
01:05 PM 20.1°F-6.6°C 16.9°F-8.4°C 82% 0.7 mph S1.1 kmh S 2.2 mph3.5 kmh 29.16 in987.5 mb 0.00 in0.0 mm 0.00 in0.0 mm 0.00 in0.0 mm
01:10 PM 20.1°F-6.6°C 16.9°F-8.4°C 82% 0.7 mph NE1.1 kmh NE 2.2 mph3.5 kmh 29.15 in987.1 mb 0.00 in0.0 mm 0.00 in0.0 mm 0.00 in0.0 mm
01:15 PM 20.3°F-6.5°C 17.1°F-8.3°C 82% Calm Calm 1.6 mph2.6 kmh 29.15 in987.1 mb 0.00 in0.0 mm 0.00 in0.0 mm 0.00 in0.0 mm
01:19 PM 20.3°F-6.5°C 17.1°F-8.3°C 82% 1.6 mph NE2.6 kmh NE 3.1 mph5.0 kmh 29.15 in987.1 mb 0.00 in0.0 mm 0.00 in0.0 mm 0.00 in0.0 mm
01:20 PM 20.3°F-6.5°C 17.1°F-8.3°C 82% Calm Calm 0.7 mph1.1 kmh 29.14 in986.8 mb 0.00 in0.0 mm 0.00 in0.0 mm 0.00 in0.0 mm
01:24 PM 20.3°F-6.5°C 17.1°F-8.3°C 82% Calm Calm 0.7 mph1.1 kmh 29.15 in987.1 mb 0.00 in0.0 mm 0.00 in0.0 mm 0.00 in0.0 mm
01:25 PM 20.3°F-6.5°C 17.1°F-8.3°C 82% Calm Calm 1.6 mph2.6 kmh 29.15 in987.1 mb 0.00 in0.0 mm 0.00 in0.0 mm 0.00 in0.0 mm
01:30 PM 20.5°F-6.4°C 17.3°F-8.2°C 82% 0.7 mph E1.1 kmh E 2.2 mph3.5 kmh 29.15 in987.1 mb 0.00 in0.0 mm 0.00 in0.0 mm 0.00 in0.0 mm
01:35 PM 20.5°F-6.4°C 17.3°F-8.2°C 82% Calm Calm 2.2 mph3.5 kmh 29.14 in986.8 mb 0.00 in0.0 mm 0.00 in0.0 mm 0.00 in0.0 mm
01:39 PM 20.5°F-6.4°C 17.3°F-8.2°C 82% 0.7 mph NE1.1 kmh NE 2.2 mph3.5 kmh 29.14 in986.8 mb 0.00 in0.0 mm 0.00 in0.0 mm 0.00 in0.0 mm
01:40 PM 20.5°F-6.4°C 17.3°F-8.2°C 82% 0.7 mph E1.1 kmh E 2.2 mph3.5 kmh 29.15 in987.1 mb 0.00 in0.0 mm 0.00 in0.0 mm 0.00 in0.0 mm
01:44 PM 20.5°F-6.4°C 17.3°F-8.2°C 82% Calm Calm 1.6 mph2.6 kmh 29.13 in986.5 mb 0.00 in0.0 mm 0.00 in0.0 mm 0.00 in0.0 mm
01:45 PM 20.5°F-6.4°C 17.3°F-8.2°C 82% 1.6 mph 2.6 kmh 3.1 mph5.0 kmh 29.13 in986.5 mb 0.00 in0.0 mm 0.00 in0.0 mm 0.00 in0.0 mm
01:50 PM 20.7°F-6.3°C 17.5°F-8.1°C 82% 1.6 mph NE2.6 kmh NE 3.8 mph6.1 kmh 29.13 in986.5 mb 0.00 in0.0 mm 0.00 in0.0 mm 0.00 in0.0 mm
01:55 PM 20.7°F-6.3°C 17.5°F-8.1°C 82% 1.6 mph SSE2.6 kmh SSE 3.1 mph5.0 kmh 29.13 in986.5 mb 0.00 in0.0 mm 0.00 in0.0 mm 0.00 in0.0 mm
01:59 PM 20.7°F-6.3°C 17.5°F-8.1°C 82% 0.7 mph SE1.1 kmh SE 3.1 mph5.0 kmh 29.11 in985.8 mb 0.00 in0.0 mm 0.00 in0.0 mm 0.00 in0.0 mm
02:00 PM 20.7°F-6.3°C 17.5°F-8.1°C 82% 1.6 mph NE2.6 kmh NE 3.8 mph6.1 kmh 29.12 in986.1 mb 0.00 in0.0 mm 0.00 in0.0 mm 0.00 in0.0 mm
02:04 PM 20.7°F-6.3°C 17.5°F-8.1°C 82% 0.7 mph NE1.1 kmh NE 3.1 mph5.0 kmh 29.11 in985.8 mb 0.00 in0.0 mm 0.00 in0.0 mm 0.00 in0.0 mm
02:05 PM 20.7°F-6.3°C 17.5°F-8.1°C 82% 0.7 mph S1.1 kmh S 3.1 mph5.0 kmh 29.11 in985.8 mb 0.00 in0.0 mm 0.00 in0.0 mm 0.00 in0.0 mm
02:10 PM 20.8°F-6.2°C 17.8°F-7.9°C 83% Calm Calm 1.6 mph2.6 kmh 29.11 in985.8 mb 0.00 in0.0 mm 0.00 in0.0 mm 0.00 in0.0 mm
02:15 PM 20.8°F-6.2°C 17.8°F-7.9°C 83% 0.7 mph E1.1 kmh E 3.8 mph6.1 kmh 29.11 in985.8 mb 0.00 in0.0 mm 0.00 in0.0 mm 0.00 in0.0 mm
02:19 PM 20.8°F-6.2°C 17.8°F-7.9°C 83% 1.6 mph E2.6 kmh E 3.8 mph6.1 kmh 29.10 in985.4 mb 0.00 in0.0 mm 0.00 in0.0 mm 0.00 in0.0 mm
02:20 PM 21.0°F-6.1°C 18.0°F-7.8°C 83% Calm Calm 2.2 mph3.5 kmh 29.11 in985.8 mb 0.00 in0.0 mm 0.00 in0.0 mm 0.00 in0.0 mm
02:24 PM 20.8°F-6.2°C 17.8°F-7.9°C 83% 0.7 mph 1.1 kmh 3.1 mph5.0 kmh 29.10 in985.4 mb 0.00 in0.0 mm 0.00 in0.0 mm 0.00 in0.0 mm
02:25 PM 20.8°F-6.2°C 17.8°F-7.9°C 83% 0.7 mph SE1.1 kmh SE 3.1 mph5.0 kmh 29.10 in985.4 mb 0.00 in0.0 mm 0.00 in0.0 mm 0.00 in0.0 mm
02:30 PM 21.0°F-6.1°C 18.0°F-7.8°C 83% Calm Calm 0.7 mph1.1 kmh 29.10 in985.4 mb 0.00 in0.0 mm 0.00 in0.0 mm 0.00 in0.0 mm
02:35 PM 21.0°F-6.1°C 18.0°F-7.8°C 83% Calm Calm 0.7 mph1.1 kmh 29.10 in985.4 mb 0.00 in0.0 mm 0.00 in0.0 mm 0.00 in0.0 mm
02:39 PM 21.0°F-6.1°C 18.0°F-7.8°C 83% 0.7 mph SE1.1 kmh SE 2.2 mph3.5 kmh 29.10 in985.4 mb 0.00 in0.0 mm 0.00 in0.0 mm 0.00 in0.0 mm
02:40 PM 21.0°F-6.1°C 18.0°F-7.8°C 83% Calm Calm 3.1 mph5.0 kmh 29.10 in985.4 mb 0.00 in0.0 mm 0.00 in0.0 mm 0.00 in0.0 mm
02:44 PM 21.0°F-6.1°C 18.0°F-7.8°C 83% 0.7 mph NE1.1 kmh NE 3.1 mph5.0 kmh 29.10 in985.4 mb 0.00 in0.0 mm 0.00 in0.0 mm 0.00 in0.0 mm
02:45 PM 21.2°F-6.0°C 18.0°F-7.8°C 82% Calm Calm 1.6 mph2.6 kmh 29.10 in985.4 mb 0.00 in0.0 mm 0.00 in0.0 mm 0.00 in0.0 mm
02:50 PM 21.2°F-6.0°C 18.0°F-7.8°C 82% 0.7 mph NE1.1 kmh NE 2.2 mph3.5 kmh 29.10 in985.4 mb 0.00 in0.0 mm 0.00 in0.0 mm 0.00 in0.0 mm
02:55 PM 21.2°F-6.0°C 18.0°F-7.8°C 82% Calm Calm 1.6 mph2.6 kmh 29.10 in985.4 mb 0.00 in0.0 mm 0.00 in0.0 mm 0.00 in0.0 mm
02:59 PM 21.2°F-6.0°C 18.0°F-7.8°C 82% 1.6 mph SE2.6 kmh SE 3.8 mph6.1 kmh 29.10 in985.4 mb 0.00 in0.0 mm 0.00 in0.0 mm 0.00 in0.0 mm
03:00 PM 21.2°F-6.0°C 18.0°F-7.8°C 82% Calm Calm 1.6 mph2.6 kmh 29.10 in985.4 mb 0.00 in0.0 mm 0.00 in0.0 mm 0.00 in0.0 mm
03:04 PM 21.2°F-6.0°C 18.0°F-7.8°C 82% 1.6 mph SE2.6 kmh SE 5.4 mph8.7 kmh 29.09 in985.1 mb 0.00 in0.0 mm 0.00 in0.0 mm 0.00 in0.0 mm
03:05 PM 21.2°F-6.0°C 18.0°F-7.8°C 82% 1.6 mph 2.6 kmh 4.5 mph7.2 kmh 29.10 in985.4 mb 0.00 in0.0 mm 0.00 in0.0 mm 0.00 in0.0 mm
03:10 PM 21.2°F-6.0°C 18.0°F-7.8°C 82% 0.7 mph W1.1 kmh W 2.2 mph3.5 kmh 29.10 in985.4 mb 0.00 in0.0 mm 0.00 in0.0 mm 0.00 in0.0 mm
03:15 PM 21.2°F-6.0°C 18.0°F-7.8°C 82% 0.7 mph 1.1 kmh 2.2 mph3.5 kmh 29.10 in985.4 mb 0.00 in0.0 mm 0.00 in0.0 mm 0.00 in0.0 mm
03:19 PM 21.4°F-5.9°C 18.2°F-7.7°C 82% 0.7 mph NE1.1 kmh NE 2.2 mph3.5 kmh 29.09 in985.1 mb 0.00 in0.0 mm 0.00 in0.0 mm 0.00 in0.0 mm
03:20 PM 21.2°F-6.0°C 18.0°F-7.8°C 82% 0.7 mph S1.1 kmh S 2.2 mph3.5 kmh 29.09 in985.1 mb 0.00 in0.0 mm 0.00 in0.0 mm 0.00 in0.0 mm
03:24 PM 21.4°F-5.9°C 18.2°F-7.7°C 82% 0.7 mph SSW1.1 kmh SSW 2.2 mph3.5 kmh 29.09 in985.1 mb 0.00 in0.0 mm 0.00 in0.0 mm 0.00 in0.0 mm
03:25 PM 21.4°F-5.9°C 18.2°F-7.7°C 82% 0.7 mph 1.1 kmh 3.8 mph6.1 kmh 29.09 in985.1 mb 0.00 in0.0 mm 0.00 in0.0 mm 0.00 in0.0 mm
03:30 PM 21.4°F-5.9°C 18.2°F-7.7°C 82% 2.2 mph NE3.5 kmh NE 5.4 mph8.7 kmh 29.08 in984.8 mb 0.00 in0.0 mm 0.00 in0.0 mm 0.00 in0.0 mm
03:35 PM 21.4°F-5.9°C 18.2°F-7.7°C 82% 0.7 mph 1.1 kmh 3.8 mph6.1 kmh 29.08 in984.8 mb 0.00 in0.0 mm 0.00 in0.0 mm 0.00 in0.0 mm
03:39 PM 21.4°F-5.9°C 18.2°F-7.7°C 82% Calm Calm 0.7 mph1.1 kmh 29.09 in985.1 mb 0.00 in0.0 mm 0.00 in0.0 mm 0.00 in0.0 mm
03:40 PM 21.4°F-5.9°C 18.2°F-7.7°C 82% Calm Calm 3.8 mph6.1 kmh 29.08 in984.8 mb 0.00 in0.0 mm 0.00 in0.0 mm 0.00 in0.0 mm
03:44 PM 21.4°F-5.9°C 18.2°F-7.7°C 82% 0.7 mph E1.1 kmh E 3.1 mph5.0 kmh 29.09 in985.1 mb 0.00 in0.0 mm 0.00 in0.0 mm 0.00 in0.0 mm
03:45 PM 21.4°F-5.9°C 18.2°F-7.7°C 82% 0.7 mph NNE1.1 kmh NNE 3.8 mph6.1 kmh 29.09 in985.1 mb 0.00 in0.0 mm 0.00 in0.0 mm 0.00 in0.0 mm
03:50 PM 21.4°F-5.9°C 18.2°F-7.7°C 82% 2.2 mph NE3.5 kmh NE 3.8 mph6.1 kmh 29.07 in984.4 mb 0.00 in0.0 mm 0.00 in0.0 mm 0.00 in0.0 mm
03:55 PM 21.4°F-5.9°C 18.2°F-7.7°C 82% 1.6 mph S2.6 kmh S 3.1 mph5.0 kmh 29.07 in984.4 mb 0.00 in0.0 mm 0.00 in0.0 mm 0.00 in0.0 mm
03:59 PM 21.4°F-5.9°C 18.2°F-7.7°C 82% 0.7 mph E1.1 kmh E 3.8 mph6.1 kmh 29.07 in984.4 mb 0.00 in0.0 mm 0.00 in0.0 mm 0.00 in0.0 mm
04:00 PM 21.4°F-5.9°C 18.2°F-7.7°C 82% 1.6 mph 2.6 kmh 3.8 mph6.1 kmh 29.07 in984.4 mb 0.00 in0.0 mm 0.00 in0.0 mm 0.00 in0.0 mm
04:04 PM 21.4°F-5.9°C 18.2°F-7.7°C 82% 0.7 mph NE1.1 kmh NE 3.1 mph5.0 kmh 29.07 in984.4 mb 0.00 in0.0 mm 0.00 in0.0 mm 0.00 in0.0 mm
04:05 PM 21.4°F-5.9°C 18.2°F-7.7°C 82% 2.2 mph SE3.5 kmh SE 4.5 mph7.2 kmh 29.07 in984.4 mb 0.00 in0.0 mm 0.00 in0.0 mm 0.00 in0.0 mm
04:10 PM 21.4°F-5.9°C 18.2°F-7.7°C 82% 0.7 mph SE1.1 kmh SE 3.8 mph6.1 kmh 29.06 in984.1 mb 0.00 in0.0 mm 0.00 in0.0 mm 0.00 in0.0 mm
04:15 PM 21.4°F-5.9°C 18.2°F-7.7°C 82% 0.7 mph SE1.1 kmh SE 5.4 mph8.7 kmh 29.06 in984.1 mb 0.00 in0.0 mm 0.00 in0.0 mm 0.00 in0.0 mm
04:19 PM 21.4°F-5.9°C 18.2°F-7.7°C 82% 0.7 mph NE1.1 kmh NE 3.8 mph6.1 kmh 29.06 in984.1 mb 0.00 in0.0 mm 0.00 in0.0 mm 0.00 in0.0 mm
04:20 PM 21.4°F-5.9°C 18.2°F-7.7°C 82% 2.2 mph S3.5 kmh S 4.5 mph7.2 kmh 29.06 in984.1 mb 0.00 in0.0 mm 0.00 in0.0 mm 0.00 in0.0 mm
04:24 PM 21.4°F-5.9°C 18.2°F-7.7°C 82% 1.6 mph E2.6 kmh E 4.5 mph7.2 kmh 29.06 in984.1 mb 0.00 in0.0 mm 0.00 in0.0 mm 0.00 in0.0 mm
04:25 PM 21.4°F-5.9°C 18.2°F-7.7°C 82% 0.7 mph NE1.1 kmh NE 3.8 mph6.1 kmh 29.06 in984.1 mb 0.00 in0.0 mm 0.00 in0.0 mm 0.00 in0.0 mm
04:30 PM 21.4°F-5.9°C 18.2°F-7.7°C 82% Calm Calm 1.6 mph2.6 kmh 29.06 in984.1 mb 0.00 in0.0 mm 0.00 in0.0 mm 0.00 in0.0 mm
04:35 PM 21.6°F-5.8°C 18.4°F-7.6°C 82% 1.6 mph E2.6 kmh E 3.1 mph5.0 kmh 29.06 in984.1 mb 0.00 in0.0 mm 0.00 in0.0 mm 0.00 in0.0 mm
04:39 PM 21.4°F-5.9°C 18.2°F-7.7°C 82% 2.2 mph ENE3.5 kmh ENE 3.8 mph6.1 kmh 29.05 in983.7 mb 0.00 in0.0 mm 0.00 in0.0 mm 0.00 in0.0 mm
04:40 PM 21.6°F-5.8°C 18.4°F-7.6°C 82% 0.7 mph NE1.1 kmh NE 1.6 mph2.6 kmh 29.05 in983.7 mb 0.00 in0.0 mm 0.00 in0.0 mm 0.00 in0.0 mm
04:44 PM 21.4°F-5.9°C 18.2°F-7.7°C 82% 1.6 mph NE2.6 kmh NE 3.1 mph5.0 kmh 29.06 in984.1 mb 0.00 in0.0 mm 0.00 in0.0 mm 0.00 in0.0 mm
04:45 PM 21.4°F-5.9°C 18.2°F-7.7°C 82% 2.2 mph NE3.5 kmh NE 6.0 mph9.7 kmh 29.05 in983.7 mb 0.00 in0.0 mm 0.00 in0.0 mm 0.00 in0.0 mm
04:50 PM 21.6°F-5.8°C 18.4°F-7.6°C 82% 2.2 mph NE3.5 kmh NE 4.5 mph7.2 kmh 29.05 in983.7 mb 0.00 in0.0 mm 0.00 in0.0 mm 0.00 in0.0 mm
04:55 PM 21.6°F-5.8°C 18.4°F-7.6°C 82% 3.1 mph S5.0 kmh S 5.4 mph8.7 kmh 29.04 in983.4 mb 0.00 in0.0 mm 0.00 in0.0 mm 0.00 in0.0 mm
04:59 PM 21.6°F-5.8°C 18.4°F-7.6°C 82% 2.2 mph NE3.5 kmh NE 6.0 mph9.7 kmh 29.04 in983.4 mb 0.00 in0.0 mm 0.00 in0.0 mm 0.00 in0.0 mm
05:00 PM 21.6°F-5.8°C 18.4°F-7.6°C 82% 1.6 mph 2.6 kmh 3.1 mph5.0 kmh 29.04 in983.4 mb 0.00 in0.0 mm 0.00 in0.0 mm 0.00 in0.0 mm
05:04 PM 21.6°F-5.8°C 18.4°F-7.6°C 82% 0.7 mph 1.1 kmh 2.2 mph3.5 kmh 29.04 in983.4 mb 0.00 in0.0 mm 0.00 in0.0 mm 0.00 in0.0 mm
05:05 PM 21.6°F-5.8°C 18.4°F-7.6°C 82% 2.2 mph NE3.5 kmh NE 4.5 mph7.2 kmh 29.04 in983.4 mb 0.00 in0.0 mm 0.00 in0.0 mm 0.00 in0.0 mm
05:10 PM 21.6°F-5.8°C 18.4°F-7.6°C 82% 1.6 mph SW2.6 kmh SW 3.8 mph6.1 kmh 29.04 in983.4 mb 0.00 in0.0 mm 0.00 in0.0 mm 0.00 in0.0 mm
05:15 PM 21.7°F-5.7°C 18.5°F-7.5°C 82% 2.2 mph S3.5 kmh S 5.4 mph8.7 kmh 29.04 in983.4 mb 0.00 in0.0 mm 0.00 in0.0 mm 0.00 in0.0 mm
05:19 PM 21.7°F-5.7°C 18.5°F-7.5°C 82% 2.2 mph NE3.5 kmh NE 5.4 mph8.7 kmh 29.04 in983.4 mb 0.00 in0.0 mm 0.00 in0.0 mm 0.00 in0.0 mm
05:20 PM 21.6°F-5.8°C 18.4°F-7.6°C 82% 2.2 mph NE3.5 kmh NE 3.8 mph6.1 kmh 29.03 in983.1 mb 0.00 in0.0 mm 0.00 in0.0 mm 0.00 in0.0 mm
05:24 PM 21.7°F-5.7°C 18.5°F-7.5°C 82% 2.2 mph 3.5 kmh 4.5 mph7.2 kmh 29.03 in983.1 mb 0.00 in0.0 mm 0.00 in0.0 mm 0.00 in0.0 mm
05:25 PM 21.7°F-5.7°C 18.5°F-7.5°C 82% 1.6 mph NE2.6 kmh NE 3.1 mph5.0 kmh 29.03 in983.1 mb 0.00 in0.0 mm 0.00 in0.0 mm 0.00 in0.0 mm
05:30 PM 21.7°F-5.7°C 18.5°F-7.5°C 82% 1.6 mph NE2.6 kmh NE 3.8 mph6.1 kmh 29.03 in983.1 mb 0.00 in0.0 mm 0.00 in0.0 mm 0.00 in0.0 mm
05:35 PM 21.7°F-5.7°C 18.5°F-7.5°C 82% Calm Calm 3.1 mph5.0 kmh 29.03 in983.1 mb 0.00 in0.0 mm 0.00 in0.0 mm 0.00 in0.0 mm
05:39 PM 21.9°F-5.6°C 18.7°F-7.4°C 82% 0.7 mph 1.1 kmh 3.1 mph5.0 kmh 29.03 in983.1 mb 0.00 in0.0 mm 0.00 in0.0 mm 0.00 in0.0 mm
05:40 PM 21.7°F-5.7°C 18.5°F-7.5°C 82% Calm Calm 2.2 mph3.5 kmh 29.02 in982.7 mb 0.00 in0.0 mm 0.00 in0.0 mm 0.00 in0.0 mm
05:44 PM 21.9°F-5.6°C 18.7°F-7.4°C 82% 1.6 mph SE2.6 kmh SE 3.8 mph6.1 kmh 29.02 in982.7 mb 0.00 in0.0 mm 0.00 in0.0 mm 0.00 in0.0 mm
05:45 PM 21.9°F-5.6°C 18.7°F-7.4°C 82% 1.6 mph NE2.6 kmh NE 4.5 mph7.2 kmh 29.02 in982.7 mb 0.00 in0.0 mm 0.00 in0.0 mm 0.00 in0.0 mm
05:50 PM 21.9°F-5.6°C 18.7°F-7.4°C 82% 2.2 mph 3.5 kmh 4.5 mph7.2 kmh 29.02 in982.7 mb 0.00 in0.0 mm 0.00 in0.0 mm 0.00 in0.0 mm
05:55 PM 21.9°F-5.6°C 18.7°F-7.4°C 82% 2.2 mph NE3.5 kmh NE 6.0 mph9.7 kmh 29.02 in982.7 mb 0.00 in0.0 mm 0.00 in0.0 mm 0.00 in0.0 mm
05:59 PM 22.1°F-5.5°C 18.9°F-7.3°C 82% 0.7 mph NE1.1 kmh NE 3.1 mph5.0 kmh 29.01 in982.4 mb 0.00 in0.0 mm 0.00 in0.0 mm 0.00 in0.0 mm
06:00 PM 21.9°F-5.6°C 18.7°F-7.4°C 82% 2.2 mph SE3.5 kmh SE 5.4 mph8.7 kmh 29.02 in982.7 mb 0.00 in0.0 mm 0.00 in0.0 mm 0.00 in0.0 mm
06:04 PM 22.1°F-5.5°C 18.9°F-7.3°C 82% 1.6 mph 2.6 kmh 3.8 mph6.1 kmh 29.01 in982.4 mb 0.00 in0.0 mm 0.00 in0.0 mm 0.00 in0.0 mm
06:05 PM 22.1°F-5.5°C 18.9°F-7.3°C 82% 1.6 mph NNE2.6 kmh NNE 4.5 mph7.2 kmh 29.01 in982.4 mb 0.00 in0.0 mm 0.00 in0.0 mm 0.00 in0.0 mm
06:10 PM 22.1°F-5.5°C 18.9°F-7.3°C 82% 0.7 mph E1.1 kmh E 3.8 mph6.1 kmh 29.01 in982.4 mb 0.00 in0.0 mm 0.00 in0.0 mm 0.00 in0.0 mm
06:15 PM 22.1°F-5.5°C 18.9°F-7.3°C 82% 1.6 mph NE2.6 kmh NE 3.1 mph5.0 kmh 29.01 in982.4 mb 0.00 in0.0 mm 0.00 in0.0 mm 0.00 in0.0 mm
06:19 PM 22.1°F-5.5°C 18.9°F-7.3°C 82% Calm Calm 2.2 mph3.5 kmh 29.00 in982.1 mb 0.00 in0.0 mm 0.00 in0.0 mm 0.00 in0.0 mm
06:20 PM 22.1°F-5.5°C 18.9°F-7.3°C 82% 0.7 mph SE1.1 kmh SE 2.2 mph3.5 kmh 29.01 in982.4 mb 0.00 in0.0 mm 0.00 in0.0 mm 0.00 in0.0 mm
06:24 PM 22.1°F-5.5°C 18.9°F-7.3°C 82% Calm Calm 0.7 mph1.1 kmh 29.00 in982.1 mb 0.00 in0.0 mm 0.00 in0.0 mm 0.00 in0.0 mm
06:25 PM 22.1°F-5.5°C 18.9°F-7.3°C 82% 2.2 mph E3.5 kmh E 4.5 mph7.2 kmh 29.00 in982.1 mb 0.00 in0.0 mm 0.00 in0.0 mm 0.00 in0.0 mm
06:30 PM 22.1°F-5.5°C 18.9°F-7.3°C 82% 1.6 mph SE2.6 kmh SE 3.8 mph6.1 kmh 29.00 in982.1 mb 0.00 in0.0 mm 0.00 in0.0 mm 0.00 in0.0 mm
06:35 PM 22.1°F-5.5°C 18.9°F-7.3°C 82% 0.7 mph NE1.1 kmh NE 3.1 mph5.0 kmh 28.99 in981.7 mb 0.00 in0.0 mm 0.00 in0.0 mm 0.00 in0.0 mm
06:39 PM 22.1°F-5.5°C 18.9°F-7.3°C 82% 0.7 mph E1.1 kmh E 4.5 mph7.2 kmh 29.00 in982.1 mb 0.00 in0.0 mm 0.00 in0.0 mm 0.00 in0.0 mm
06:40 PM 22.1°F-5.5°C 18.9°F-7.3°C 82% 0.7 mph SSW1.1 kmh SSW 3.1 mph5.0 kmh 28.99 in981.7 mb 0.00 in0.0 mm 0.00 in0.0 mm 0.00 in0.0 mm
06:44 PM 22.1°F-5.5°C 18.9°F-7.3°C 82% 3.1 mph E5.0 kmh E 5.4 mph8.7 kmh 28.99 in981.7 mb 0.00 in0.0 mm 0.00 in0.0 mm 0.00 in0.0 mm
06:45 PM 22.3°F-5.4°C 19.1°F-7.2°C 82% 1.6 mph E2.6 kmh E 4.5 mph7.2 kmh 29.00 in982.1 mb 0.00 in0.0 mm 0.00 in0.0 mm 0.00 in0.0 mm
06:50 PM 22.3°F-5.4°C 19.1°F-7.2°C 82% 1.6 mph NW2.6 kmh NW 3.8 mph6.1 kmh 28.99 in981.7 mb 0.00 in0.0 mm 0.00 in0.0 mm 0.00 in0.0 mm
06:55 PM 22.3°F-5.4°C 19.1°F-7.2°C 82% Calm Calm 2.2 mph3.5 kmh 28.99 in981.7 mb 0.00 in0.0 mm 0.00 in0.0 mm 0.00 in0.0 mm
06:59 PM 22.3°F-5.4°C 19.1°F-7.2°C 82% 1.6 mph 2.6 kmh 6.0 mph9.7 kmh 28.99 in981.7 mb 0.00 in0.0 mm 0.00 in0.0 mm 0.00 in0.0 mm
07:00 PM 22.3°F-5.4°C 19.1°F-7.2°C 82% 1.6 mph S2.6 kmh S 4.5 mph7.2 kmh 28.99 in981.7 mb 0.00 in0.0 mm 0.00 in0.0 mm 0.00 in0.0 mm
07:04 PM 22.3°F-5.4°C 19.1°F-7.2°C 82% 1.6 mph SW2.6 kmh SW 5.4 mph8.7 kmh 28.99 in981.7 mb 0.00 in0.0 mm 0.00 in0.0 mm 0.00 in0.0 mm
07:05 PM 22.3°F-5.4°C 19.1°F-7.2°C 82% 2.2 mph 3.5 kmh 4.5 mph7.2 kmh 28.99 in981.7 mb 0.00 in0.0 mm 0.00 in0.0 mm 0.00 in0.0 mm
07:10 PM 22.5°F-5.3°C 19.2°F-7.1°C 82% 0.7 mph E1.1 kmh E 3.1 mph5.0 kmh 28.98 in981.4 mb 0.00 in0.0 mm 0.00 in0.0 mm 0.00 in0.0 mm
07:15 PM 22.5°F-5.3°C 19.2°F-7.1°C 82% 0.7 mph SE1.1 kmh SE 5.4 mph8.7 kmh 28.98 in981.4 mb 0.00 in0.0 mm 0.00 in0.0 mm 0.00 in0.0 mm
07:19 PM 22.5°F-5.3°C 19.2°F-7.1°C 82% 1.6 mph S2.6 kmh S 2.2 mph3.5 kmh 28.98 in981.4 mb 0.00 in0.0 mm 0.00 in0.0 mm 0.00 in0.0 mm
07:20 PM 22.5°F-5.3°C 19.2°F-7.1°C 82% Calm Calm 2.2 mph3.5 kmh 28.98 in981.4 mb 0.00 in0.0 mm 0.00 in0.0 mm 0.00 in0.0 mm
07:24 PM 22.5°F-5.3°C 19.2°F-7.1°C 82% 0.7 mph 1.1 kmh 1.6 mph2.6 kmh 28.98 in981.4 mb 0.00 in0.0 mm 0.00 in0.0 mm 0.00 in0.0 mm
07:25 PM 22.5°F-5.3°C 19.2°F-7.1°C 82% 1.6 mph NE2.6 kmh NE 5.4 mph8.7 kmh 28.98 in981.4 mb 0.00 in0.0 mm 0.00 in0.0 mm 0.00 in0.0 mm
07:30 PM 22.6°F-5.2°C 19.6°F-6.9°C 83% 0.7 mph NW1.1 kmh NW 3.8 mph6.1 kmh 28.97 in981.0 mb 0.00 in0.0 mm 0.00 in0.0 mm 0.00 in0.0 mm
07:35 PM 22.6°F-5.2°C 19.6°F-6.9°C 83% 5.4 mph S8.7 kmh S 7.6 mph12.2 kmh 28.97 in981.0 mb 0.00 in0.0 mm 0.00 in0.0 mm 0.00 in0.0 mm
07:39 PM 22.8°F-5.1°C 19.8°F-6.8°C 83% 2.2 mph NE3.5 kmh NE 3.8 mph6.1 kmh 28.97 in981.0 mb 0.00 in0.0 mm 0.00 in0.0 mm 0.00 in0.0 mm
07:40 PM 22.6°F-5.2°C 19.6°F-6.9°C 83% 0.7 mph S1.1 kmh S 4.5 mph7.2 kmh 28.97 in981.0 mb 0.00 in0.0 mm 0.00 in0.0 mm 0.00 in0.0 mm
07:44 PM 22.8°F-5.1°C 19.8°F-6.8°C 83% 0.7 mph NE1.1 kmh NE 4.5 mph7.2 kmh 28.97 in981.0 mb 0.00 in0.0 mm 0.00 in0.0 mm 0.00 in0.0 mm
07:45 PM 22.8°F-5.1°C 19.8°F-6.8°C 83% 0.7 mph SW1.1 kmh SW 2.2 mph3.5 kmh 28.97 in981.0 mb 0.00 in0.0 mm 0.00 in0.0 mm 0.00 in0.0 mm
07:50 PM 23.0°F-5.0°C 19.8°F-6.8°C 82% 0.7 mph E1.1 kmh E 3.1 mph5.0 kmh 28.97 in981.0 mb 0.00 in0.0 mm 0.00 in0.0 mm 0.00 in0.0 mm
07:55 PM 23.0°F-5.0°C 19.8°F-6.8°C 82% 0.7 mph S1.1 kmh S 2.2 mph3.5 kmh 28.97 in981.0 mb 0.00 in0.0 mm 0.00 in0.0 mm 0.00 in0.0 mm
07:59 PM 23.2°F-4.9°C 19.9°F-6.7°C 82% Calm Calm 1.6 mph2.6 kmh 28.97 in981.0 mb 0.00 in0.0 mm 0.00 in0.0 mm 0.00 in0.0 mm
08:00 PM 23.0°F-5.0°C 19.8°F-6.8°C 82% 1.6 mph 2.6 kmh 3.8 mph6.1 kmh 28.97 in981.0 mb 0.00 in0.0 mm 0.00 in0.0 mm 0.00 in0.0 mm
08:04 PM 23.2°F-4.9°C 19.9°F-6.7°C 82% 1.6 mph 2.6 kmh 4.5 mph7.2 kmh 28.97 in981.0 mb 0.00 in0.0 mm 0.00 in0.0 mm 0.00 in0.0 mm
08:05 PM 23.2°F-4.9°C 19.9°F-6.7°C 82% Calm Calm 3.1 mph5.0 kmh 28.97 in981.0 mb 0.00 in0.0 mm 0.00 in0.0 mm 0.00 in0.0 mm
08:10 PM 23.4°F-4.8°C 20.1°F-6.6°C 82% 1.6 mph E2.6 kmh E 5.4 mph8.7 kmh 28.96 in980.7 mb 0.00 in0.0 mm 0.00 in0.0 mm 0.00 in0.0 mm
08:15 PM 23.4°F-4.8°C 20.1°F-6.6°C 82% 0.7 mph NE1.1 kmh NE 2.2 mph3.5 kmh 28.96 in980.7 mb 0.00 in0.0 mm 0.00 in0.0 mm 0.00 in0.0 mm
08:19 PM 23.4°F-4.8°C 20.1°F-6.6°C 82% 0.7 mph S1.1 kmh S 3.1 mph5.0 kmh 28.95 in980.4 mb 0.00 in0.0 mm 0.00 in0.0 mm 0.00 in0.0 mm
08:20 PM 23.4°F-4.8°C 20.1°F-6.6°C 82% Calm Calm 2.2 mph3.5 kmh 28.96 in980.7 mb 0.00 in0.0 mm 0.00 in0.0 mm 0.00 in0.0 mm
08:23 PM 12.6°F-10.8°C 7.6°F-13.6°C 72% 6.0 mph S9.7 kmh S 9.8 mph15.8 kmh 29.27 in991.2 mb 0.00 in0.0 mm 0.00 in0.0 mm 0.00 in0.0 mm
08:24 PM 23.4°F-4.8°C 20.1°F-6.6°C 82% 0.7 mph E1.1 kmh E 3.1 mph5.0 kmh 28.95 in980.4 mb 0.00 in0.0 mm 0.00 in0.0 mm 0.00 in0.0 mm
08:25 PM 23.4°F-4.8°C 20.1°F-6.6°C 82% 0.7 mph NE1.1 kmh NE 3.8 mph6.1 kmh 28.95 in980.4 mb 0.00 in0.0 mm 0.00 in0.0 mm 0.00 in0.0 mm
08:30 PM 23.7°F-4.6°C 20.5°F-6.4°C 82% 1.6 mph 2.6 kmh 4.5 mph7.2 kmh 28.95 in980.4 mb 0.00 in0.0 mm 0.00 in0.0 mm 0.00 in0.0 mm
08:35 PM 23.7°F-4.6°C 20.5°F-6.4°C 82% 2.2 mph E3.5 kmh E 4.5 mph7.2 kmh 28.95 in980.4 mb 0.00 in0.0 mm 0.00 in0.0 mm 0.00 in0.0 mm
08:39 PM 23.9°F-4.5°C 20.6°F-6.3°C 82% 1.6 mph SE2.6 kmh SE 3.8 mph6.1 kmh 28.95 in980.4 mb 0.00 in0.0 mm 0.00 in0.0 mm 0.00 in0.0 mm
08:40 PM 23.7°F-4.6°C 20.5°F-6.4°C 82% 1.6 mph 2.6 kmh 3.1 mph5.0 kmh 28.95 in980.4 mb 0.00 in0.0 mm 0.00 in0.0 mm 0.00 in0.0 mm
08:44 PM 23.9°F-4.5°C 20.6°F-6.3°C 82% 1.6 mph E2.6 kmh E 3.1 mph5.0 kmh 28.95 in980.4 mb 0.00 in0.0 mm 0.00 in0.0 mm 0.00 in0.0 mm
08:45 PM 23.9°F-4.5°C 20.6°F-6.3°C 82% 0.7 mph E1.1 kmh E 3.1 mph5.0 kmh 28.94 in980.0 mb 0.00 in0.0 mm 0.00 in0.0 mm 0.00 in0.0 mm
08:50 PM 24.1°F-4.4°C 20.8°F-6.2°C 82% 0.7 mph S1.1 kmh S 2.2 mph3.5 kmh 28.95 in980.4 mb 0.00 in0.0 mm 0.00 in0.0 mm 0.00 in0.0 mm
08:55 PM 24.1°F-4.4°C 20.8°F-6.2°C 82% 0.7 mph NE1.1 kmh NE 5.4 mph8.7 kmh 28.95 in980.4 mb 0.00 in0.0 mm 0.00 in0.0 mm 0.00 in0.0 mm
08:59 PM 24.3°F-4.3°C 21.0°F-6.1°C 82% 0.7 mph E1.1 kmh E 3.1 mph5.0 kmh 28.94 in980.0 mb 0.00 in0.0 mm 0.00 in0.0 mm 0.00 in0.0 mm
09:00 PM 24.1°F-4.4°C 20.8°F-6.2°C 82% 1.6 mph NE2.6 kmh NE 3.8 mph6.1 kmh 28.94 in980.0 mb 0.00 in0.0 mm 0.00 in0.0 mm 0.00 in0.0 mm
09:04 PM 24.3°F-4.3°C 21.0°F-6.1°C 82% 1.6 mph NE2.6 kmh NE 3.1 mph5.0 kmh 28.94 in980.0 mb 0.00 in0.0 mm 0.00 in0.0 mm 0.00 in0.0 mm
09:05 PM 24.3°F-4.3°C 21.0°F-6.1°C 82% 2.2 mph SE3.5 kmh SE 5.4 mph8.7 kmh 28.95 in980.4 mb 0.00 in0.0 mm 0.00 in0.0 mm 0.00 in0.0 mm
09:10 PM 24.3°F-4.3°C 21.0°F-6.1°C 82% 1.6 mph NE2.6 kmh NE 4.5 mph7.2 kmh 28.94 in980.0 mb 0.00 in0.0 mm 0.00 in0.0 mm 0.00 in0.0 mm
09:15 PM 24.4°F-4.2°C 21.2°F-6.0°C 82% 1.6 mph 2.6 kmh 3.1 mph5.0 kmh 28.93 in979.7 mb 0.00 in0.0 mm 0.00 in0.0 mm 0.00 in0.0 mm
09:19 PM 24.4°F-4.2°C 21.2°F-6.0°C 82% 0.7 mph E1.1 kmh E 2.2 mph3.5 kmh 28.93 in979.7 mb 0.00 in0.0 mm 0.00 in0.0 mm 0.00 in0.0 mm
09:20 PM 24.4°F-4.2°C 21.2°F-6.0°C 82% 0.7 mph 1.1 kmh 2.2 mph3.5 kmh 28.93 in979.7 mb 0.00 in0.0 mm 0.00 in0.0 mm 0.00 in0.0 mm
09:24 PM 24.4°F-4.2°C 21.2°F-6.0°C 82% 0.7 mph SW1.1 kmh SW 3.1 mph5.0 kmh 28.93 in979.7 mb 0.00 in0.0 mm 0.00 in0.0 mm 0.00 in0.0 mm
09:25 PM 24.4°F-4.2°C 21.2°F-6.0°C 82% 0.7 mph 1.1 kmh 2.2 mph3.5 kmh 28.93 in979.7 mb 0.00 in0.0 mm 0.00 in0.0 mm 0.00 in0.0 mm
09:30 PM 24.6°F-4.1°C 21.3°F-5.9°C 82% 2.2 mph NE3.5 kmh NE 4.5 mph7.2 kmh 28.93 in979.7 mb 0.00 in0.0 mm 0.00 in0.0 mm 0.00 in0.0 mm
09:35 PM 24.6°F-4.1°C 21.3°F-5.9°C 82% 0.7 mph NE1.1 kmh NE 3.1 mph5.0 kmh 28.93 in979.7 mb 0.00 in0.0 mm 0.00 in0.0 mm 0.00 in0.0 mm
09:39 PM 24.6°F-4.1°C 21.3°F-5.9°C 82% 0.7 mph 1.1 kmh 3.1 mph5.0 kmh 28.93 in979.7 mb 0.00 in0.0 mm 0.00 in0.0 mm 0.00 in0.0 mm
09:40 PM 24.6°F-4.1°C 21.3°F-5.9°C 82% Calm Calm 2.2 mph3.5 kmh 28.93 in979.7 mb 0.00 in0.0 mm 0.00 in0.0 mm 0.00 in0.0 mm
09:44 PM 24.8°F-4.0°C 21.3°F-5.9°C 81% 0.7 mph SE1.1 kmh SE 2.2 mph3.5 kmh 28.92 in979.3 mb 0.00 in0.0 mm 0.00 in0.0 mm 0.00 in0.0 mm
09:45 PM 24.8°F-4.0°C 21.3°F-5.9°C 81% 1.6 mph E2.6 kmh E 3.8 mph6.1 kmh 28.93 in979.7 mb 0.00 in0.0 mm 0.00 in0.0 mm 0.00 in0.0 mm
09:50 PM 24.8°F-4.0°C 21.3°F-5.9°C 81% 0.7 mph NE1.1 kmh NE 3.8 mph6.1 kmh 28.92 in979.3 mb 0.00 in0.0 mm 0.00 in0.0 mm 0.00 in0.0 mm
09:55 PM 24.8°F-4.0°C 21.3°F-5.9°C 81% 1.6 mph SE2.6 kmh SE 3.1 mph5.0 kmh 28.92 in979.3 mb 0.00 in0.0 mm 0.00 in0.0 mm 0.00 in0.0 mm
09:59 PM 25.0°F-3.9°C 21.5°F-5.8°C 81% 0.7 mph SE1.1 kmh SE 2.2 mph3.5 kmh 28.92 in979.3 mb 0.00 in0.0 mm 0.00 in0.0 mm 0.00 in0.0 mm
10:00 PM 25.0°F-3.9°C 21.5°F-5.8°C 81% 0.7 mph E1.1 kmh E 2.2 mph3.5 kmh 28.93 in979.7 mb 0.00 in0.0 mm 0.00 in0.0 mm 0.00 in0.0 mm
10:04 PM 25.0°F-3.9°C 21.5°F-5.8°C 81% Calm Calm 2.2 mph3.5 kmh 28.92 in979.3 mb 0.00 in0.0 mm 0.00 in0.0 mm 0.00 in0.0 mm
10:05 PM 25.0°F-3.9°C 21.5°F-5.8°C 81% Calm Calm 0.7 mph1.1 kmh 28.92 in979.3 mb 0.00 in0.0 mm 0.00 in0.0 mm 0.00 in0.0 mm
10:10 PM 25.0°F-3.9°C 21.5°F-5.8°C 81% 1.6 mph NE2.6 kmh NE 3.8 mph6.1 kmh 28.92 in979.3 mb 0.00 in0.0 mm 0.00 in0.0 mm 0.00 in0.0 mm
10:15 PM 25.2°F-3.8°C 21.7°F-5.7°C 81% 2.2 mph NE3.5 kmh NE 6.9 mph11.1 kmh 28.92 in979.3 mb 0.00 in0.0 mm 0.00 in0.0 mm 0.00 in0.0 mm
10:19 PM 25.2°F-3.8°C 21.7°F-5.7°C 81% 0.7 mph NE1.1 kmh NE 3.8 mph6.1 kmh 28.92 in979.3 mb 0.00 in0.0 mm 0.00 in0.0 mm 0.00 in0.0 mm
10:20 PM 25.2°F-3.8°C 21.7°F-5.7°C 81% 0.7 mph SE1.1 kmh SE 2.2 mph3.5 kmh 28.92 in979.3 mb 0.00 in0.0 mm 0.00 in0.0 mm 0.00 in0.0 mm
10:24 PM 25.2°F-3.8°C 21.7°F-5.7°C 81% 2.2 mph E3.5 kmh E 4.5 mph7.2 kmh 28.92 in979.3 mb 0.00 in0.0 mm 0.00 in0.0 mm 0.00 in0.0 mm
10:25 PM 25.2°F-3.8°C 21.7°F-5.7°C 81% 0.7 mph E1.1 kmh E 2.2 mph3.5 kmh 28.92 in979.3 mb 0.00 in0.0 mm 0.00 in0.0 mm 0.00 in0.0 mm
10:30 PM 25.2°F-3.8°C 21.7°F-5.7°C 81% Calm Calm 2.2 mph3.5 kmh 28.92 in979.3 mb 0.00 in0.0 mm 0.00 in0.0 mm 0.00 in0.0 mm
10:35 PM 25.2°F-3.8°C 21.7°F-5.7°C 81% 0.7 mph NNW1.1 kmh NNW 2.2 mph3.5 kmh 28.92 in979.3 mb 0.00 in0.0 mm 0.00 in0.0 mm 0.00 in0.0 mm
10:39 PM 25.2°F-3.8°C 21.7°F-5.7°C 81% 1.6 mph E2.6 kmh E 3.1 mph5.0 kmh 28.92 in979.3 mb 0.00 in0.0 mm 0.00 in0.0 mm 0.00 in0.0 mm
10:40 PM 25.2°F-3.8°C 21.7°F-5.7°C 81% Calm Calm 2.2 mph3.5 kmh 28.92 in979.3 mb 0.00 in0.0 mm 0.00 in0.0 mm 0.00 in0.0 mm
10:44 PM 25.2°F-3.8°C 21.7°F-5.7°C 81% 1.6 mph SE2.6 kmh SE 3.8 mph6.1 kmh 28.92 in979.3 mb 0.00 in0.0 mm 0.00 in0.0 mm 0.00 in0.0 mm
10:45 PM 25.3°F-3.7°C 21.8°F-5.7°C 81% 2.2 mph E3.5 kmh E 5.4 mph8.7 kmh 28.92 in979.3 mb 0.00 in0.0 mm 0.00 in0.0 mm 0.00 in0.0 mm
10:50 PM 25.3°F-3.7°C 21.8°F-5.7°C 81% 0.7 mph 1.1 kmh 1.6 mph2.6 kmh 28.92 in979.3 mb 0.00 in0.0 mm 0.00 in0.0 mm 0.00 in0.0 mm
10:55 PM 25.3°F-3.7°C 21.8°F-5.7°C 81% 0.7 mph NE1.1 kmh NE 3.8 mph6.1 kmh 28.92 in979.3 mb 0.00 in0.0 mm 0.00 in0.0 mm 0.00 in0.0 mm
10:59 PM 25.3°F-3.7°C 21.8°F-5.7°C 81% 0.7 mph NE1.1 kmh NE 3.8 mph6.1 kmh 28.92 in979.3 mb 0.00 in0.0 mm 0.00 in0.0 mm 0.00 in0.0 mm
11:00 PM 25.3°F-3.7°C 21.8°F-5.7°C 81% 3.1 mph NE5.0 kmh NE 3.8 mph6.1 kmh 28.92 in979.3 mb 0.00 in0.0 mm 0.00 in0.0 mm 0.00 in0.0 mm
11:04 PM 25.3°F-3.7°C 21.8°F-5.7°C 81% 0.7 mph SE1.1 kmh SE 3.1 mph5.0 kmh 28.91 in979.0 mb 0.00 in0.0 mm 0.00 in0.0 mm 0.00 in0.0 mm
11:05 PM 25.3°F-3.7°C 21.8°F-5.7°C 81% 2.2 mph NE3.5 kmh NE 6.0 mph9.7 kmh 28.92 in979.3 mb 0.00 in0.0 mm 0.00 in0.0 mm 0.00 in0.0 mm
11:10 PM 25.3°F-3.7°C 21.8°F-5.7°C 81% 0.7 mph E1.1 kmh E 3.1 mph5.0 kmh 28.91 in979.0 mb 0.00 in0.0 mm 0.00 in0.0 mm 0.00 in0.0 mm
11:15 PM 25.3°F-3.7°C 21.8°F-5.7°C 81% 1.6 mph SE2.6 kmh SE 3.8 mph6.1 kmh 28.91 in979.0 mb 0.00 in0.0 mm 0.00 in0.0 mm 0.00 in0.0 mm
11:19 PM 25.3°F-3.7°C 21.8°F-5.7°C 81% 0.7 mph E1.1 kmh E 2.2 mph3.5 kmh 28.91 in979.0 mb 0.00 in0.0 mm 0.00 in0.0 mm 0.00 in0.0 mm
11:20 PM 25.3°F-3.7°C 21.8°F-5.7°C 81% 1.6 mph NE2.6 kmh NE 3.1 mph5.0 kmh 28.91 in979.0 mb 0.00 in0.0 mm 0.00 in0.0 mm 0.00 in0.0 mm
11:24 PM 25.3°F-3.7°C 21.8°F-5.7°C 81% 0.7 mph NE1.1 kmh NE 1.6 mph2.6 kmh 28.91 in979.0 mb 0.00 in0.0 mm 0.00 in0.0 mm 0.00 in0.0 mm
11:25 PM 25.3°F-3.7°C 21.8°F-5.7°C 81% 1.6 mph SE2.6 kmh SE 4.5 mph7.2 kmh 28.91 in979.0 mb 0.00 in0.0 mm 0.00 in0.0 mm 0.00 in0.0 mm
11:30 PM 25.3°F-3.7°C 21.8°F-5.7°C 81% 2.2 mph E3.5 kmh E 4.5 mph7.2 kmh 28.91 in979.0 mb 0.00 in0.0 mm 0.00 in0.0 mm 0.00 in0.0 mm
11:35 PM 25.3°F-3.7°C 21.8°F-5.7°C 81% 0.7 mph E1.1 kmh E 4.5 mph7.2 kmh 28.91 in979.0 mb 0.00 in0.0 mm 0.00 in0.0 mm 0.00 in0.0 mm
11:39 PM 25.3°F-3.7°C 21.8°F-5.7°C 81% 1.6 mph E2.6 kmh E 3.1 mph5.0 kmh 28.91 in979.0 mb 0.00 in0.0 mm 0.00 in0.0 mm 0.00 in0.0 mm
11:40 PM 25.3°F-3.7°C 21.8°F-5.7°C 81% 3.1 mph NE5.0 kmh NE 4.5 mph7.2 kmh 28.91 in979.0 mb 0.00 in0.0 mm 0.00 in0.0 mm 0.00 in0.0 mm
11:44 PM 25.3°F-3.7°C 21.8°F-5.7°C 81% 1.6 mph SE2.6 kmh SE 3.1 mph5.0 kmh 28.91 in979.0 mb 0.00 in0.0 mm 0.00 in0.0 mm 0.00 in0.0 mm
11:45 PM 25.3°F-3.7°C 21.8°F-5.7°C 81% 1.6 mph NW2.6 kmh NW 2.2 mph3.5 kmh 28.91 in979.0 mb 0.00 in0.0 mm 0.00 in0.0 mm 0.00 in0.0 mm
11:50 PM 25.3°F-3.7°C 21.8°F-5.7°C 81% 1.6 mph NE2.6 kmh NE 5.4 mph8.7 kmh 28.91 in979.0 mb 0.00 in0.0 mm 0.00 in0.0 mm 0.00 in0.0 mm
11:55 PM 25.3°F-3.7°C 21.8°F-5.7°C 81% 2.2 mph SE3.5 kmh SE 4.5 mph7.2 kmh 28.91 in979.0 mb 0.00 in0.0 mm 0.00 in0.0 mm 0.00 in0.0 mm
11:59 PM 25.3°F-3.7°C 21.8°F-5.7°C 81% 1.6 mph NE2.6 kmh NE 3.1 mph5.0 kmh 28.90 in978.7 mb 0.00 in0.0 mm 0.00 in0.0 mm 0.00 in0.0 mm